Wetterdaten: Mittwoch, 04.07.2018
Datum Zeit Temp. Aussen Temp. o. S. +5cm Feuchte Auss Luftdruck Regen Sonnenschein Regendauer Solar Windben Empfang
04.07.2018 00:00 20,4 C 18,9 C 16,7 C 58 % 1012,6 hPa 0,0 l/m 0 min 0 min 0 W/m 2,3 km/h (1 Bft) 97,87 %
04.07.2018 00:02 20,3 C 18,9 C 16,7 C 58 % 1012,6 hPa 0,0 l/m 0 min 0 min 0 W/m 0,0 km/h (0 Bft) 94,74 %
04.07.2018 00:04 20,3 C 18,9 C 16,7 C 58 % 1012,5 hPa 0,0 l/m 0 min 0 min 0 W/m 0,0 km/h (0 Bft) 97,87 %
04.07.2018 00:07 20,2 C 18,9 C 16,7 C 58 % 1012,6 hPa 0,0 l/m 0 min 0 min 0 W/m 2,3 km/h (1 Bft) 97,87 %
04.07.2018 00:08 20,2 C 18,9 C 16,7 C 58 % 1012,6 hPa 0,0 l/m 0 min 0 min 0 W/m 2,3 km/h (1 Bft) 97,96 %
04.07.2018 00:10 20,1 C 19,4 C 17,2 C 58 % 1012,7 hPa 0,0 l/m 0 min 0 min 0 W/m 4,5 km/h (1 Bft) 100,00 %
04.07.2018 00:12 20,1 C 19,4 C 17,8 C 57 % 1012,6 hPa 0,0 l/m 0 min 0 min 0 W/m 4,5 km/h (1 Bft) 100,00 %
04.07.2018 00:14 20,1 C 20,0 C 17,8 C 57 % 1012,5 hPa 0,0 l/m 0 min 0 min 0 W/m 4,5 km/h (1 Bft) 100,00 %
04.07.2018 00:16 20,0 C 20,0 C 17,8 C 57 % 1012,6 hPa 0,0 l/m 0 min 0 min 0 W/m 4,5 km/h (1 Bft) 97,87 %
04.07.2018 00:18 20,0 C 20,0 C 17,8 C 58 % 1012,7 hPa 0,0 l/m 0 min 0 min 0 W/m 2,3 km/h (1 Bft) 100,00 %
04.07.2018 00:20 20,0 C 20,0 C 17,8 C 58 % 1012,7 hPa 0,0 l/m 0 min 0 min 0 W/m 2,3 km/h (1 Bft) 100,00 %
04.07.2018 00:22 20,0 C 20,0 C 17,8 C 58 % 1012,7 hPa 0,0 l/m 0 min 0 min 0 W/m 2,3 km/h (1 Bft) 100,00 %
04.07.2018 00:24 20,0 C 20,0 C 17,8 C 58 % 1012,7 hPa 0,0 l/m 0 min 0 min 0 W/m 2,3 km/h (1 Bft) 100,00 %
04.07.2018 00:26 19,9 C 20,0 C 17,8 C 58 % 1012,7 hPa 0,0 l/m 0 min 0 min 0 W/m 0,0 km/h (0 Bft) 100,00 %
04.07.2018 00:28 20,0 C 20,0 C 17,8 C 59 % 1012,7 hPa 0,0 l/m 0 min 0 min 0 W/m 2,3 km/h (1 Bft) 100,00 %
04.07.2018 00:30 20,0 C 20,0 C 17,8 C 59 % 1012,7 hPa 0,0 l/m 0 min 0 min 0 W/m 2,3 km/h (1 Bft) 100,00 %
04.07.2018 00:32 20,0 C 20,0 C 17,8 C 59 % 1012,7 hPa 0,0 l/m 0 min 0 min 0 W/m 2,3 km/h (1 Bft) 100,00 %
04.07.2018 00:34 20,0 C 20,0 C 17,8 C 59 % 1012,7 hPa 0,0 l/m 0 min 0 min 0 W/m 2,3 km/h (1 Bft) 95,74 %
04.07.2018 00:36 20,0 C 20,0 C 17,8 C 59 % 1012,7 hPa 0,0 l/m 0 min 0 min 0 W/m 2,3 km/h (1 Bft) 100,00 %
04.07.2018 00:38 20,0 C 20,0 C 17,8 C 59 % 1012,8 hPa 0,0 l/m 0 min 0 min 0 W/m 4,5 km/h (1 Bft) 100,00 %
04.07.2018 00:40 20,0 C 20,0 C 17,8 C 59 % 1012,8 hPa 0,0 l/m 0 min 0 min 0 W/m 0,0 km/h (0 Bft) 100,00 %
04.07.2018 00:42 20,0 C 20,0 C 17,8 C 59 % 1012,8 hPa 0,0 l/m 0 min 0 min 0 W/m 2,3 km/h (1 Bft) 100,00 %
04.07.2018 00:44 20,0 C 20,0 C 17,8 C 59 % 1012,7 hPa 0,0 l/m 0 min 0 min 0 W/m 2,3 km/h (1 Bft) 97,83 %
04.07.2018 00:46 20,1 C 19,4 C 17,8 C 59 % 1012,8 hPa 0,0 l/m 0 min 0 min 0 W/m 2,3 km/h (1 Bft) 100,00 %
04.07.2018 00:48 20,0 C 19,4 C 17,8 C 59 % 1012,7 hPa 0,0 l/m 0 min 0 min 0 W/m 2,3 km/h (1 Bft) 100,00 %
04.07.2018 00:50 20,1 C 20,0 C 17,8 C 59 % 1012,8 hPa 0,0 l/m 0 min 0 min 0 W/m 2,3 km/h (1 Bft) 100,00 %
04.07.2018 00:52 20,1 C 20,0 C 17,8 C 59 % 1012,7 hPa 0,0 l/m 0 min 0 min 0 W/m 0,0 km/h (0 Bft) 100,00 %
04.07.2018 00:54 20,1 C 20,0 C 17,8 C 60 % 1012,7 hPa 0,0 l/m 0 min 0 min 0 W/m 2,3 km/h (1 Bft) 100,00 %
04.07.2018 00:56 20,1 C 20,0 C 17,8 C 60 % 1012,7 hPa 0,0 l/m 0 min 0 min 0 W/m 0,0 km/h (0 Bft) 100,00 %
04.07.2018 00:58 20,1 C 20,0 C 17,8 C 60 % 1012,7 hPa 0,0 l/m 0 min 0 min 0 W/m 2,3 km/h (1 Bft) 95,74 %
04.07.2018 01:00 20,1 C 20,0 C 17,8 C 60 % 1012,8 hPa 0,0 l/m 0 min 0 min 0 W/m 2,3 km/h (1 Bft) 100,00 %
04.07.2018 01:02 20,1 C 19,4 C 17,8 C 60 % 1012,7 hPa 0,0 l/m 0 min 0 min 0 W/m 0,0 km/h (0 Bft) 100,00 %
04.07.2018 01:04 20,1 C 19,4 C 17,8 C 60 % 1012,7 hPa 0,0 l/m 0 min 0 min 0 W/m 0,0 km/h (0 Bft) 97,87 %
04.07.2018 01:06 20,1 C 20,0 C 17,8 C 61 % 1012,7 hPa 0,0 l/m 0 min 0 min 0 W/m 2,3 km/h (1 Bft) 100,00 %
04.07.2018 01:08 20,1 C 19,4 C 17,8 C 61 % 1012,7 hPa 0,0 l/m 0 min 0 min 0 W/m 2,3 km/h (1 Bft) 97,83 %
04.07.2018 01:10 20,1 C 20,0 C 17,8 C 61 % 1012,7 hPa 0,0 l/m 0 min 0 min 0 W/m 6,8 km/h (2 Bft) 93,62 %
04.07.2018 01:12 20,1 C 20,0 C 18,3 C 61 % 1012,7 hPa 0,0 l/m 0 min 0 min 0 W/m 4,5 km/h (1 Bft) 97,87 %
04.07.2018 01:14 20,2 C 20,0 C 18,3 C 61 % 1012,7 hPa 0,0 l/m 0 min 0 min 0 W/m 4,5 km/h (1 Bft) 97,87 %
04.07.2018 01:16 20,2 C 20,0 C 18,3 C 62 % 1012,6 hPa 0,0 l/m 0 min 0 min 0 W/m 4,5 km/h (1 Bft) 97,87 %
04.07.2018 01:18 20,2 C 20,0 C 18,3 C 62 % 1012,7 hPa 0,0 l/m 0 min 0 min 0 W/m 2,3 km/h (1 Bft) 97,87 %
04.07.2018 01:20 20,2 C 20,0 C 18,3 C 62 % 1012,7 hPa 0,0 l/m 0 min 0 min 0 W/m 2,3 km/h (1 Bft) 95,65 %
04.07.2018 01:22 20,2 C 20,0 C 18,9 C 62 % 1012,7 hPa 0,0 l/m 0 min 0 min 0 W/m 4,5 km/h (1 Bft) 97,87 %
04.07.2018 01:24 20,2 C 20,0 C 18,9 C 62 % 1012,7 hPa 0,0 l/m 0 min 0 min 0 W/m 2,3 km/h (1 Bft) 97,87 %
04.07.2018 01:26 20,2 C 20,0 C 18,9 C 62 % 1012,7 hPa 0,0 l/m 0 min 0 min 0 W/m 4,5 km/h (1 Bft) 95,74 %
04.07.2018 01:28 20,2 C 20,0 C 18,9 C 63 % 1012,7 hPa 0,0 l/m 0 min 0 min 0 W/m 4,5 km/h (1 Bft) 95,74 %
04.07.2018 01:30 20,2 C 20,0 C 18,9 C 63 % 1012,7 hPa 0,0 l/m 0 min 0 min 0 W/m 2,3 km/h (1 Bft) 97,87 %
04.07.2018 01:32 20,3 C 20,0 C 18,9 C 63 % 1012,7 hPa 0,0 l/m 0 min 0 min 0 W/m 4,5 km/h (1 Bft) 95,74 %
04.07.2018 01:34 20,3 C 20,0 C 18,9 C 63 % 1012,7 hPa 0,0 l/m 0 min 0 min 0 W/m 4,5 km/h (1 Bft) 95,74 %
04.07.2018 01:36 20,3 C 20,0 C 18,9 C 64 % 1012,8 hPa 0,0 l/m 0 min 0 min 0 W/m 4,5 km/h (1 Bft) 95,74 %
04.07.2018 01:38 20,3 C 20,0 C 18,9 C 64 % 1012,7 hPa 0,0 l/m 0 min 0 min 0 W/m 4,5 km/h (1 Bft) 95,74 %
04.07.2018 01:40 20,3 C 20,0 C 18,9 C 64 % 1012,7 hPa 0,0 l/m 0 min 0 min 0 W/m 4,5 km/h (1 Bft) 95,74 %
04.07.2018 01:42 20,3 C 20,0 C 18,9 C 64 % 1012,7 hPa 0,0 l/m 0 min 0 min 0 W/m 4,5 km/h (1 Bft) 95,65 %
04.07.2018 01:44 20,3 C 20,0 C 18,9 C 64 % 1012,7 hPa 0,0 l/m 0 min 0 min 0 W/m 4,5 km/h (1 Bft) 91,49 %
04.07.2018 01:46 20,4 C 20,0 C 18,9 C 64 % 1012,8 hPa 0,0 l/m 0 min 0 min 0 W/m 6,8 km/h (2 Bft) 93,62 %
04.07.2018 01:48 20,4 C 20,0 C 18,9 C 64 % 1012,8 hPa 0,0 l/m 0 min 0 min 0 W/m 4,5 km/h (1 Bft) 93,62 %
04.07.2018 01:50 20,4 C 20,0 C 18,9 C 65 % 1012,8 hPa 0,0 l/m 0 min 0 min 0 W/m 4,5 km/h (1 Bft) 95,74 %
04.07.2018 01:52 20,4 C 20,0 C 18,9 C 65 % 1012,7 hPa 0,0 l/m 0 min 0 min 0 W/m 4,5 km/h (1 Bft) 95,74 %
04.07.2018 01:54 20,4 C 20,0 C 18,9 C 65 % 1012,7 hPa 0,0 l/m 0 min 0 min 0 W/m 2,3 km/h (1 Bft) 95,65 %
04.07.2018 01:56 20,4 C 20,0 C 19,4 C 65 % 1012,8 hPa 0,0 l/m 0 min 0 min 0 W/m 4,5 km/h (1 Bft) 89,36 %
04.07.2018 01:58 20,5 C 20,0 C 18,9 C 66 % 1012,8 hPa 0,0 l/m 0 min 0 min 0 W/m 4,5 km/h (1 Bft) 95,74 %
04.07.2018 02:00 20,5 C 20,0 C 18,9 C 65 % 1012,8 hPa 0,0 l/m 0 min 0 min 0 W/m 2,3 km/h (1 Bft) 97,87 %
04.07.2018 02:02 20,5 C 20,0 C 18,9 C 65 % 1012,8 hPa 0,0 l/m 0 min 0 min 0 W/m 0,0 km/h (0 Bft) 93,62 %
04.07.2018 02:04 20,6 C 20,0 C 18,9 C 65 % 1012,8 hPa 0,0 l/m 0 min 0 min 0 W/m 0,0 km/h (0 Bft) 93,62 %
04.07.2018 02:06 20,6 C 20,0 C 18,9 C 65 % 1012,8 hPa 0,0 l/m 0 min 0 min 0 W/m 0,0 km/h (0 Bft) 95,65 %
04.07.2018 02:08 20,6 C 20,0 C 18,9 C 65 % 1012,8 hPa 0,0 l/m 0 min 0 min 0 W/m 0,0 km/h (0 Bft) 95,74 %
04.07.2018 02:10 20,6 C 20,0 C 18,9 C 65 % 1012,8 hPa 0,0 l/m 0 min 0 min 0 W/m 0,0 km/h (0 Bft) 95,74 %
04.07.2018 02:12 20,6 C 20,0 C 18,9 C 66 % 1012,7 hPa 0,0 l/m 0 min 0 min 0 W/m 4,5 km/h (1 Bft) 93,62 %
04.07.2018 02:14 20,6 C 20,0 C 18,9 C 65 % 1012,7 hPa 0,0 l/m 0 min 0 min 0 W/m 2,3 km/h (1 Bft) 93,62 %
04.07.2018 02:16 20,6 C 20,0 C 18,9 C 65 % 1012,8 hPa 0,0 l/m 0 min 0 min 0 W/m 4,5 km/h (1 Bft) 95,74 %
04.07.2018 02:18 20,6 C 20,0 C 18,9 C 66 % 1012,8 hPa 0,0 l/m 0 min 0 min 0 W/m 4,5 km/h (1 Bft) 95,65 %
04.07.2018 02:20 20,6 C 20,0 C 18,9 C 66 % 1012,8 hPa 0,0 l/m 0 min 0 min 0 W/m 4,5 km/h (1 Bft) 95,74 %
04.07.2018 02:22 20,6 C 20,0 C 18,9 C 66 % 1012,8 hPa 0,0 l/m 0 min 0 min 0 W/m 9,0 km/h (2 Bft) 93,62 %
04.07.2018 02:24 20,6 C 20,0 C 18,9 C 66 % 1012,8 hPa 0,0 l/m 0 min 0 min 0 W/m 2,3 km/h (1 Bft) 95,74 %
04.07.2018 02:26 20,6 C 20,0 C 18,9 C 66 % 1012,7 hPa 0,0 l/m 0 min 0 min 0 W/m 4,5 km/h (1 Bft) 95,74 %
04.07.2018 02:28 20,6 C 20,0 C 18,9 C 66 % 1012,7 hPa 0,0 l/m 0 min 0 min 0 W/m 4,5 km/h (1 Bft) 95,74 %
04.07.2018 02:30 20,7 C 20,0 C 18,9 C 66 % 1012,7 hPa 0,0 l/m 0 min 0 min 0 W/m 4,5 km/h (1 Bft) 97,83 %
04.07.2018 02:32 20,7 C 20,0 C 18,9 C 66 % 1012,7 hPa 0,0 l/m 0 min 0 min 0 W/m 2,3 km/h (1 Bft) 97,87 %
04.07.2018 02:34 20,7 C 20,0 C 18,9 C 66 % 1012,7 hPa 0,0 l/m 0 min 0 min 0 W/m 0,0 km/h (0 Bft) 97,87 %
04.07.2018 02:36 20,6 C 20,0 C 18,9 C 66 % 1012,7 hPa 0,0 l/m 0 min 0 min 0 W/m 0,0 km/h (0 Bft) 97,87 %
04.07.2018 02:38 20,6 C 20,0 C 18,9 C 66 % 1012,7 hPa 0,0 l/m 0 min 0 min 0 W/m 0,0 km/h (0 Bft) 97,87 %
04.07.2018 02:40 20,7 C 20,0 C 18,9 C 66 % 1012,6 hPa 0,0 l/m 0 min 0 min 0 W/m 0,0 km/h (0 Bft) 95,74 %
04.07.2018 02:42 20,7 C 20,0 C 18,9 C 66 % 1012,6 hPa 0,0 l/m 0 min 0 min 0 W/m 0,0 km/h (0 Bft) 97,83 %
04.07.2018 02:44 20,7 C 20,0 C 18,9 C 67 % 1012,6 hPa 0,0 l/m 0 min 0 min 0 W/m 0,0 km/h (0 Bft) 97,87 %
04.07.2018 02:46 20,7 C 20,0 C 18,9 C 67 % 1012,5 hPa 0,0 l/m 0 min 0 min 0 W/m 0,0 km/h (0 Bft) 97,87 %
04.07.2018 02:48 20,7 C 20,0 C 18,9 C 67 % 1012,5 hPa 0,0 l/m 0 min 0 min 0 W/m 0,0 km/h (0 Bft) 95,74 %
04.07.2018 02:50 20,6 C 20,0 C 18,9 C 67 % 1012,5 hPa 0,0 l/m 0 min 0 min 0 W/m 0,0 km/h (0 Bft) 95,74 %
04.07.2018 02:52 20,6 C 20,0 C 18,9 C 67 % 1012,5 hPa 0,0 l/m 0 min 0 min 0 W/m 0,0 km/h (0 Bft) 100,00 %
04.07.2018 02:54 20,6 C 20,0 C 18,9 C 67 % 1012,5 hPa 0,0 l/m 0 min 0 min 0 W/m 6,8 km/h (2 Bft) 100,00 %
04.07.2018 02:56 20,6 C 20,0 C 18,9 C 67 % 1012,3 hPa 0,0 l/m 0 min 0 min 0 W/m 2,3 km/h (1 Bft) 100,00 %
04.07.2018 02:58 20,6 C 20,0 C 18,9 C 67 % 1012,3 hPa 0,0 l/m 0 min 0 min 0 W/m 2,3 km/h (1 Bft) 100,00 %
04.07.2018 03:00 20,6 C 20,0 C 18,9 C 67 % 1012,4 hPa 0,0 l/m 0 min 0 min 0 W/m 6,8 km/h (2 Bft) 100,00 %
04.07.2018 03:02 20,6 C 20,0 C 18,9 C 67 % 1012,2 hPa 0,0 l/m 0 min 0 min 0 W/m 2,3 km/h (1 Bft) 100,00 %
04.07.2018 03:04 20,6 C 20,0 C 18,9 C 68 % 1012,4 hPa 0,0 l/m 0 min 0 min 0 W/m 0,0 km/h (0 Bft) 100,00 %
04.07.2018 03:06 20,6 C 20,0 C 18,9 C 68 % 1012,3 hPa 0,0 l/m 0 min 0 min 0 W/m 4,5 km/h (1 Bft) 100,00 %
04.07.2018 03:08 20,6 C 20,0 C 18,9 C 68 % 1012,3 hPa 0,0 l/m 0 min 0 min 0 W/m 4,5 km/h (1 Bft) 97,83 %
04.07.2018 03:10 20,6 C 20,0 C 18,9 C 68 % 1012,3 hPa 0,0 l/m 0 min 0 min 0 W/m 6,8 km/h (2 Bft) 100,00 %
04.07.2018 03:12 20,6 C 20,0 C 18,9 C 68 % 1012,3 hPa 0,0 l/m 0 min 0 min 0 W/m 2,3 km/h (1 Bft) 100,00 %
04.07.2018 03:14 20,6 C 20,0 C 18,9 C 68 % 1012,2 hPa 0,0 l/m 0 min 0 min 0 W/m 4,5 km/h (1 Bft) 100,00 %
04.07.2018 03:16 20,6 C 20,0 C 18,9 C 68 % 1012,2 hPa 0,0 l/m 0 min 0 min 0 W/m 2,3 km/h (1 Bft) 97,87 %
04.07.2018 03:18 20,6 C 20,0 C 18,9 C 68 % 1012,2 hPa 0,0 l/m 0 min 0 min 0 W/m 0,0 km/h (0 Bft) 97,87 %
04.07.2018 03:20 20,6 C 19,4 C 18,9 C 68 % 1012,2 hPa 0,0 l/m 0 min 0 min 0 W/m 0,0 km/h (0 Bft) 97,83 %
04.07.2018 03:22 20,6 C 19,4 C 18,9 C 68 % 1012,1 hPa 0,0 l/m 0 min 0 min 0 W/m 6,8 km/h (2 Bft) 100,00 %
04.07.2018 03:24 20,6 C 19,4 C 18,9 C 68 % 1012,2 hPa 0,0 l/m 0 min 0 min 0 W/m 4,5 km/h (1 Bft) 100,00 %
04.07.2018 03:26 20,6 C 19,4 C 18,9 C 68 % 1012,1 hPa 0,0 l/m 0 min 0 min 0 W/m 4,5 km/h (1 Bft) 100,00 %
04.07.2018 03:28 20,6 C 19,4 C 18,9 C 68 % 1012,1 hPa 0,0 l/m 0 min 0 min 0 W/m 2,3 km/h (1 Bft) 100,00 %
04.07.2018 03:30 20,5 C 19,4 C 18,9 C 68 % 1012,2 hPa 0,0 l/m 0 min 0 min 0 W/m 0,0 km/h (0 Bft) 100,00 %
04.07.2018 03:32 20,5 C 19,4 C 18,9 C 69 % 1012,1 hPa 0,0 l/m 0 min 0 min 0 W/m 0,0 km/h (0 Bft) 100,00 %
04.07.2018 03:34 20,5 C 19,4 C 18,9 C 69 % 1012,1 hPa 0,0 l/m 0 min 0 min 0 W/m 0,0 km/h (0 Bft) 100,00 %
04.07.2018 03:36 20,5 C 19,4 C 18,9 C 69 % 1012,1 hPa 0,0 l/m 0 min 0 min 0 W/m 0,0 km/h (0 Bft) 100,00 %
04.07.2018 03:38 20,5 C 19,4 C 18,3 C 70 % 1012,1 hPa 0,0 l/m 0 min 0 min 0 W/m 0,0 km/h (0 Bft) 100,00 %
04.07.2018 03:40 20,5 C 19,4 C 18,3 C 70 % 1012,1 hPa 0,0 l/m 0 min 0 min 0 W/m 0,0 km/h (0 Bft) 100,00 %
04.07.2018 03:42 20,4 C 18,9 C 18,3 C 70 % 1012,1 hPa 0,0 l/m 0 min 0 min 0 W/m 0,0 km/h (0 Bft) 97,87 %
04.07.2018 03:44 20,4 C 18,9 C 18,3 C 70 % 1012,0 hPa 0,0 l/m 0 min 0 min 0 W/m 0,0 km/h (0 Bft) 100,00 %
04.07.2018 03:46 20,4 C 18,9 C 18,3 C 70 % 1012,0 hPa 0,0 l/m 0 min 0 min 0 W/m 0,0 km/h (0 Bft) 97,87 %
04.07.2018 03:48 20,4 C 18,9 C 18,3 C 70 % 1012,0 hPa 0,0 l/m 0 min 0 min 0 W/m 0,0 km/h (0 Bft) 97,87 %
04.07.2018 03:50 20,4 C 18,9 C 18,3 C 70 % 1012,0 hPa 0,0 l/m 0 min 0 min 0 W/m 0,0 km/h (0 Bft) 95,74 %
04.07.2018 03:52 20,3 C 18,9 C 18,3 C 70 % 1012,1 hPa 0,0 l/m 0 min 0 min 0 W/m 0,0 km/h (0 Bft) 97,87 %
04.07.2018 03:54 20,3 C 18,9 C 18,3 C 70 % 1012,0 hPa 0,0 l/m 0 min 0 min 0 W/m 0,0 km/h (0 Bft) 97,87 %
04.07.2018 03:56 20,3 C 18,9 C 18,3 C 70 % 1012,0 hPa 0,0 l/m 0 min 0 min 0 W/m 0,0 km/h (0 Bft) 95,65 %
04.07.2018 03:58 20,3 C 18,9 C 18,3 C 70 % 1012,0 hPa 0,0 l/m 0 min 0 min 0 W/m 2,3 km/h (1 Bft) 97,87 %
04.07.2018 04:00 20,2 C 18,9 C 18,3 C 70 % 1012,0 hPa 0,0 l/m 0 min 0 min 0 W/m 2,3 km/h (1 Bft) 95,74 %
04.07.2018 04:05 20,2 C 18,9 C 18,3 C 70 % 1012,0 hPa 0,0 l/m 0 min 0 min 0 W/m 0,0 km/h (0 Bft) 96,20 %
04.07.2018 04:06 20,2 C 18,9 C 18,3 C 70 % 1012,0 hPa 0,0 l/m 0 min 0 min 0 W/m 0,0 km/h (0 Bft) 100,00 %
04.07.2018 04:08 20,1 C 18,9 C 18,3 C 70 % 1012,0 hPa 0,0 l/m 0 min 0 min 0 W/m 0,0 km/h (0 Bft) 96,23 %
04.07.2018 04:10 20,1 C 18,3 C 18,3 C 70 % 1011,9 hPa 0,0 l/m 0 min 0 min 0 W/m 0,0 km/h (0 Bft) 97,87 %
04.07.2018 04:12 20,1 C 18,3 C 17,8 C 70 % 1011,8 hPa 0,0 l/m 0 min 0 min 0 W/m 0,0 km/h (0 Bft) 97,87 %
04.07.2018 04:14 20,0 C 18,3 C 17,8 C 70 % 1011,9 hPa 0,0 l/m 0 min 0 min 0 W/m 0,0 km/h (0 Bft) 95,74 %
04.07.2018 04:16 20,0 C 18,3 C 17,8 C 70 % 1012,0 hPa 0,0 l/m 0 min 0 min 0 W/m 0,0 km/h (0 Bft) 97,87 %
04.07.2018 04:18 19,9 C 18,3 C 17,8 C 71 % 1012,0 hPa 0,0 l/m 0 min 0 min 0 W/m 0,0 km/h (0 Bft) 97,83 %
04.07.2018 04:20 19,9 C 18,3 C 17,8 C 71 % 1011,9 hPa 0,0 l/m 0 min 0 min 0 W/m 0,0 km/h (0 Bft) 97,87 %
04.07.2018 04:22 19,9 C 18,3 C 17,8 C 71 % 1011,9 hPa 0,0 l/m 0 min 0 min 0 W/m 0,0 km/h (0 Bft) 95,83 %
04.07.2018 04:24 19,8 C 17,8 C 17,8 C 71 % 1012,0 hPa 0,0 l/m 0 min 0 min 0 W/m 0,0 km/h (0 Bft) 97,87 %
04.07.2018 04:26 19,8 C 17,8 C 17,8 C 71 % 1011,9 hPa 0,0 l/m 0 min 0 min 0 W/m 0,0 km/h (0 Bft) 97,87 %
04.07.2018 04:28 19,7 C 17,8 C 17,8 C 71 % 1011,9 hPa 0,0 l/m 0 min 0 min 0 W/m 0,0 km/h (0 Bft) 97,87 %
04.07.2018 04:30 19,7 C 17,8 C 17,8 C 71 % 1012,0 hPa 0,0 l/m 0 min 0 min 0 W/m 0,0 km/h (0 Bft) 97,83 %
04.07.2018 04:32 19,7 C 17,8 C 17,2 C 71 % 1011,9 hPa 0,0 l/m 0 min 0 min 0 W/m 0,0 km/h (0 Bft) 95,74 %
04.07.2018 04:34 19,6 C 17,8 C 17,2 C 72 % 1012,0 hPa 0,0 l/m 0 min 0 min 0 W/m 0,0 km/h (0 Bft) 100,00 %
04.07.2018 04:36 19,6 C 17,8 C 17,2 C 72 % 1011,9 hPa 0,0 l/m 0 min 0 min 0 W/m 0,0 km/h (0 Bft) 97,92 %
04.07.2018 04:38 19,5 C 17,2 C 17,2 C 72 % 1011,9 hPa 0,0 l/m 0 min 0 min 0 W/m 0,0 km/h (0 Bft) 95,74 %
04.07.2018 04:40 19,4 C 17,2 C 17,2 C 73 % 1012,0 hPa 0,0 l/m 0 min 0 min 0 W/m 0,0 km/h (0 Bft) 97,87 %
04.07.2018 04:42 19,4 C 17,2 C 17,2 C 73 % 1011,9 hPa 0,0 l/m 0 min 0 min 0 W/m 0,0 km/h (0 Bft) 100,00 %
04.07.2018 04:44 19,3 C 17,2 C 17,2 C 74 % 1011,9 hPa 0,0 l/m 0 min 0 min 0 W/m 0,0 km/h (0 Bft) 97,87 %
04.07.2018 04:46 19,3 C 17,2 C 17,2 C 74 % 1011,9 hPa 0,0 l/m 0 min 0 min 0 W/m 0,0 km/h (0 Bft) 97,87 %
04.07.2018 04:48 19,2 C 17,2 C 17,2 C 74 % 1011,9 hPa 0,0 l/m 0 min 0 min 0 W/m 0,0 km/h (0 Bft) 100,00 %
04.07.2018 04:50 19,2 C 17,2 C 16,7 C 74 % 1011,9 hPa 0,0 l/m 0 min 0 min 0 W/m 0,0 km/h (0 Bft) 95,74 %
04.07.2018 04:52 19,1 C 17,2 C 16,7 C 74 % 1011,9 hPa 0,0 l/m 0 min 0 min 0 W/m 0,0 km/h (0 Bft) 97,87 %
04.07.2018 04:54 19,1 C 17,2 C 16,7 C 74 % 1011,9 hPa 0,0 l/m 0 min 0 min 0 W/m 0,0 km/h (0 Bft) 97,83 %
04.07.2018 04:56 19,1 C 17,2 C 16,7 C 74 % 1011,8 hPa 0,0 l/m 0 min 0 min 0 W/m 0,0 km/h (0 Bft) 97,87 %
04.07.2018 04:58 19,0 C 17,2 C 16,7 C 74 % 1011,8 hPa 0,0 l/m 0 min 0 min 0 W/m 0,0 km/h (0 Bft) 97,87 %
04.07.2018 05:00 18,9 C 17,2 C 16,7 C 74 % 1011,9 hPa 0,0 l/m 0 min 0 min 0 W/m 0,0 km/h (0 Bft) 97,87 %
04.07.2018 05:02 18,9 C 17,2 C 16,7 C 74 % 1011,8 hPa 0,0 l/m 0 min 0 min 0 W/m 0,0 km/h (0 Bft) 97,87 %
04.07.2018 05:04 18,9 C 17,2 C 16,7 C 75 % 1011,9 hPa 0,0 l/m 0 min 0 min 0 W/m 0,0 km/h (0 Bft) 97,87 %
04.07.2018 05:06 18,8 C 17,2 C 16,7 C 74 % 1011,8 hPa 0,0 l/m 0 min 0 min 0 W/m 0,0 km/h (0 Bft) 95,65 %
04.07.2018 05:08 18,8 C 17,2 C 16,7 C 75 % 1011,9 hPa 0,0 l/m 0 min 0 min 0 W/m 0,0 km/h (0 Bft) 95,74 %
04.07.2018 05:10 18,8 C 17,2 C 16,7 C 75 % 1011,9 hPa 0,0 l/m 0 min 0 min 0 W/m 0,0 km/h (0 Bft) 95,74 %
04.07.2018 05:12 18,7 C 17,2 C 16,7 C 75 % 1011,9 hPa 0,0 l/m 0 min 0 min 0 W/m 0,0 km/h (0 Bft) 93,62 %
04.07.2018 05:14 18,7 C 17,2 C 16,7 C 75 % 1011,9 hPa 0,0 l/m 0 min 0 min 0 W/m 0,0 km/h (0 Bft) 93,62 %
04.07.2018 05:16 18,7 C 17,2 C 16,7 C 75 % 1011,8 hPa 0,0 l/m 0 min 0 min 0 W/m 0,0 km/h (0 Bft) 95,65 %
04.07.2018 05:18 18,6 C 17,2 C 16,7 C 76 % 1011,8 hPa 0,0 l/m 0 min 0 min 0 W/m 0,0 km/h (0 Bft) 95,74 %
04.07.2018 05:20 18,6 C 17,2 C 16,7 C 76 % 1011,9 hPa 0,0 l/m 0 min 0 min 0 W/m 0,0 km/h (0 Bft) 91,49 %
04.07.2018 05:22 18,6 C 17,2 C 16,7 C 76 % 1011,9 hPa 0,0 l/m 0 min 0 min 0 W/m 0,0 km/h (0 Bft) 95,74 %
04.07.2018 05:24 18,6 C 17,2 C 16,7 C 76 % 1011,9 hPa 0,0 l/m 0 min 0 min 4 W/m 0,0 km/h (0 Bft) 95,74 %
04.07.2018 05:26 18,5 C 17,2 C 16,7 C 76 % 1011,9 hPa 0,0 l/m 0 min 0 min 5 W/m 0,0 km/h (0 Bft) 95,74 %
04.07.2018 05:28 18,4 C 16,7 C 16,7 C 76 % 1011,9 hPa 0,0 l/m 0 min 0 min 5 W/m 0,0 km/h (0 Bft) 95,65 %
04.07.2018 05:30 18,4 C 16,7 C 16,7 C 76 % 1011,8 hPa 0,0 l/m 0 min 0 min 5 W/m 0,0 km/h (0 Bft) 95,74 %
04.07.2018 05:32 18,4 C 16,7 C 16,7 C 76 % 1011,8 hPa 0,0 l/m 0 min 0 min 5 W/m 0,0 km/h (0 Bft) 95,74 %
04.07.2018 05:34 18,4 C 16,7 C 16,7 C 77 % 1011,8 hPa 0,0 l/m 0 min 0 min 6 W/m 0,0 km/h (0 Bft) 95,74 %
04.07.2018 05:35 18,4 C 16,7 C 16,7 C 77 % 1011,8 hPa 0,0 l/m 0 min 0 min 6 W/m 0,0 km/h (0 Bft) 99,12 %
04.07.2018 05:40 18,3 C 16,7 C 16,7 C 77 % 1011,8 hPa 0,0 l/m 0 min 0 min 8 W/m 0,0 km/h (0 Bft) 100,00 %
04.07.2018 05:42 18,3 C 16,7 C 16,7 C 77 % 1011,8 hPa 0,0 l/m 0 min 0 min 9 W/m 0,0 km/h (0 Bft) 95,74 %
04.07.2018 05:44 18,2 C 16,7 C 16,7 C 77 % 1011,6 hPa 0,0 l/m 0 min 0 min 9 W/m 0,0 km/h (0 Bft) 100,00 %
04.07.2018 05:46 18,2 C 16,7 C 16,7 C 78 % 1011,6 hPa 0,0 l/m 0 min 0 min 11 W/m 0,0 km/h (0 Bft) 97,87 %
04.07.2018 05:48 18,2 C 16,7 C 16,7 C 78 % 1011,6 hPa 0,0 l/m 0 min 0 min 12 W/m 0,0 km/h (0 Bft) 97,87 %
04.07.2018 05:50 18,2 C 16,7 C 16,7 C 78 % 1011,6 hPa 0,0 l/m 0 min 0 min 12 W/m 0,0 km/h (0 Bft) 97,87 %
04.07.2018 05:52 18,2 C 16,7 C 16,7 C 78 % 1011,6 hPa 0,0 l/m 0 min 0 min 14 W/m 0,0 km/h (0 Bft) 97,83 %
04.07.2018 05:54 18,1 C 16,7 C 16,7 C 78 % 1011,8 hPa 0,0 l/m 0 min 0 min 14 W/m 0,0 km/h (0 Bft) 96,36 %
04.07.2018 05:56 18,1 C 16,7 C 16,7 C 78 % 1011,8 hPa 0,0 l/m 0 min 0 min 13 W/m 0,0 km/h (0 Bft) 97,87 %
04.07.2018 05:58 18,1 C 16,7 C 16,7 C 78 % 1011,8 hPa 0,0 l/m 0 min 0 min 14 W/m 0,0 km/h (0 Bft) 97,87 %
04.07.2018 06:00 18,1 C 16,7 C 16,7 C 78 % 1011,8 hPa 0,0 l/m 0 min 0 min 16 W/m 0,0 km/h (0 Bft) 97,87 %
04.07.2018 06:02 18,1 C 16,7 C 16,7 C 78 % 1011,8 hPa 0,0 l/m 0 min 0 min 16 W/m 0,0 km/h (0 Bft) 97,83 %
04.07.2018 06:04 18,1 C 16,7 C 16,7 C 78 % 1011,8 hPa 0,0 l/m 0 min 0 min 18 W/m 0,0 km/h (0 Bft) 97,87 %
04.07.2018 06:08 18,0 C 17,2 C 16,7 C 78 % 1011,8 hPa 0,0 l/m 0 min 0 min 19 W/m 0,0 km/h (0 Bft) 97,96 %
04.07.2018 06:10 17,9 C 17,2 C 16,7 C 78 % 1011,8 hPa 0,0 l/m 0 min 0 min 21 W/m 0,0 km/h (0 Bft) 97,14 %
04.07.2018 06:12 17,9 C 17,2 C 16,7 C 78 % 1011,9 hPa 0,0 l/m 0 min 0 min 21 W/m 0,0 km/h (0 Bft) 98,28 %
04.07.2018 06:14 17,9 C 17,2 C 16,7 C 78 % 1011,8 hPa 0,0 l/m 0 min 0 min 20 W/m 0,0 km/h (0 Bft) 97,87 %
04.07.2018 06:16 17,9 C 17,2 C 16,7 C 78 % 1011,8 hPa 0,0 l/m 0 min 0 min 20 W/m 0,0 km/h (0 Bft) 100,00 %
04.07.2018 06:18 17,9 C 17,2 C 16,7 C 78 % 1011,8 hPa 0,0 l/m 0 min 0 min 21 W/m 0,0 km/h (0 Bft) 97,87 %
04.07.2018 06:20 17,9 C 17,2 C 16,7 C 78 % 1011,8 hPa 0,0 l/m 0 min 0 min 22 W/m 0,0 km/h (0 Bft) 100,00 %
04.07.2018 06:22 17,9 C 17,2 C 16,7 C 78 % 1011,8 hPa 0,0 l/m 0 min 0 min 25 W/m 0,0 km/h (0 Bft) 97,83 %
04.07.2018 06:24 17,9 C 17,2 C 16,7 C 78 % 1011,9 hPa 0,0 l/m 0 min 0 min 29 W/m 0,0 km/h (0 Bft) 97,87 %
04.07.2018 06:26 17,9 C 17,8 C 17,2 C 79 % 1011,9 hPa 0,0 l/m 0 min 0 min 32 W/m 0,0 km/h (0 Bft) 97,87 %
04.07.2018 06:28 17,9 C 17,8 C 17,2 C 79 % 1011,9 hPa 0,0 l/m 0 min 0 min 34 W/m 0,0 km/h (0 Bft) 100,00 %
04.07.2018 06:30 17,8 C 17,8 C 17,2 C 79 % 1011,8 hPa 0,0 l/m 0 min 0 min 36 W/m 0,0 km/h (0 Bft) 97,87 %
04.07.2018 06:32 17,8 C 17,8 C 17,2 C 79 % 1011,8 hPa 0,0 l/m 0 min 0 min 36 W/m 0,0 km/h (0 Bft) 100,00 %
04.07.2018 06:34 17,9 C 17,8 C 17,2 C 79 % 1011,8 hPa 0,0 l/m 0 min 0 min 33 W/m 0,0 km/h (0 Bft) 100,00 %
04.07.2018 06:36 17,8 C 17,8 C 17,2 C 80 % 1011,9 hPa 0,0 l/m 0 min 0 min 32 W/m 0,0 km/h (0 Bft) 100,00 %
04.07.2018 06:38 17,8 C 17,8 C 17,2 C 80 % 1011,9 hPa 0,0 l/m 0 min 0 min 32 W/m 0,0 km/h (0 Bft) 97,87 %
04.07.2018 06:40 17,8 C 17,8 C 17,2 C 80 % 1012,0 hPa 0,0 l/m 0 min 0 min 34 W/m 0,0 km/h (0 Bft) 95,74 %
04.07.2018 06:42 17,9 C 17,8 C 17,2 C 80 % 1012,0 hPa 0,0 l/m 0 min 0 min 35 W/m 0,0 km/h (0 Bft) 97,87 %
04.07.2018 06:44 17,9 C 17,8 C 17,2 C 80 % 1011,9 hPa 0,0 l/m 0 min 0 min 36 W/m 0,0 km/h (0 Bft) 97,87 %
04.07.2018 06:46 17,9 C 17,8 C 17,2 C 80 % 1011,9 hPa 0,0 l/m 0 min 0 min 39 W/m 0,0 km/h (0 Bft) 95,65 %
04.07.2018 06:48 17,9 C 17,8 C 17,2 C 80 % 1011,9 hPa 0,0 l/m 0 min 0 min 43 W/m 0,0 km/h (0 Bft) 97,87 %
04.07.2018 06:50 17,9 C 17,8 C 17,2 C 80 % 1011,9 hPa 0,0 l/m 0 min 0 min 52 W/m 0,0 km/h (0 Bft) 97,87 %
04.07.2018 06:52 17,9 C 18,3 C 17,2 C 80 % 1011,9 hPa 0,0 l/m 0 min 0 min 56 W/m 0,0 km/h (0 Bft) 97,14 %
04.07.2018 06:54 17,9 C 18,3 C 17,2 C 80 % 1011,9 hPa 0,0 l/m 0 min 0 min 60 W/m 0,0 km/h (0 Bft) 98,15 %
04.07.2018 06:56 17,9 C 18,3 C 17,2 C 81 % 1012,0 hPa 0,0 l/m 0 min 0 min 63 W/m 0,0 km/h (0 Bft) 95,74 %
04.07.2018 06:58 17,9 C 18,3 C 17,2 C 81 % 1012,0 hPa 0,0 l/m 0 min 0 min 65 W/m 0,0 km/h (0 Bft) 95,74 %
04.07.2018 07:00 17,9 C 18,3 C 17,2 C 81 % 1012,0 hPa 0,0 l/m 0 min 0 min 65 W/m 0,0 km/h (0 Bft) 97,87 %
04.07.2018 07:02 17,9 C 18,3 C 17,2 C 81 % 1011,9 hPa 0,0 l/m 0 min 0 min 65 W/m 0,0 km/h (0 Bft) 97,56 %
04.07.2018 07:04 17,9 C 18,3 C 17,2 C 81 % 1011,9 hPa 0,0 l/m 0 min 0 min 65 W/m 0,0 km/h (0 Bft) 97,87 %
04.07.2018 07:06 18,0 C 18,3 C 17,2 C 81 % 1011,9 hPa 0,0 l/m 0 min 0 min 65 W/m 0,0 km/h (0 Bft) 98,11 %
04.07.2018 07:08 18,0 C 18,3 C 17,2 C 81 % 1011,9 hPa 0,0 l/m 0 min 0 min 66 W/m 0,0 km/h (0 Bft) 95,74 %
04.07.2018 07:10 18,0 C 18,3 C 17,2 C 81 % 1011,8 hPa 0,0 l/m 0 min 0 min 67 W/m 0,0 km/h (0 Bft) 95,74 %
04.07.2018 07:12 18,0 C 18,3 C 17,2 C 81 % 1011,8 hPa 0,0 l/m 0 min 0 min 65 W/m 0,0 km/h (0 Bft) 95,65 %
04.07.2018 07:14 18,1 C 18,3 C 17,8 C 81 % 1011,9 hPa 0,0 l/m 0 min 0 min 63 W/m 0,0 km/h (0 Bft) 95,74 %
04.07.2018 07:16 18,1 C 18,3 C 17,8 C 81 % 1011,8 hPa 0,0 l/m 0 min 0 min 63 W/m 0,0 km/h (0 Bft) 95,74 %
04.07.2018 07:18 18,1 C 18,9 C 17,8 C 81 % 1011,8 hPa 0,0 l/m 0 min 0 min 64 W/m 0,0 km/h (0 Bft) 95,74 %
04.07.2018 07:20 18,1 C 18,9 C 17,8 C 81 % 1011,7 hPa 0,0 l/m 0 min 0 min 67 W/m 0,0 km/h (0 Bft) 95,74 %
04.07.2018 07:22 18,1 C 18,9 C 17,8 C 81 % 1011,7 hPa 0,0 l/m 0 min 0 min 67 W/m 0,0 km/h (0 Bft) 95,74 %
04.07.2018 07:24 18,1 C 18,9 C 17,8 C 81 % 1011,7 hPa 0,0 l/m 0 min 0 min 67 W/m 0,0 km/h (0 Bft) 97,83 %
04.07.2018 07:26 18,1 C 18,9 C 17,8 C 81 % 1011,8 hPa 0,0 l/m 0 min 0 min 71 W/m 0,0 km/h (0 Bft) 95,74 %
04.07.2018 07:28 18,2 C 18,9 C 17,8 C 81 % 1011,6 hPa 0,0 l/m 0 min 0 min 78 W/m 0,0 km/h (0 Bft) 95,74 %
04.07.2018 07:30 18,2 C 18,9 C 17,8 C 81 % 1011,6 hPa 0,0 l/m 0 min 0 min 85 W/m 0,0 km/h (0 Bft) 97,87 %
04.07.2018 07:32 18,2 C 18,9 C 17,8 C 81 % 1011,6 hPa 0,0 l/m 0 min 0 min 94 W/m 0,0 km/h (0 Bft) 97,67 %
04.07.2018 07:34 18,2 C 18,9 C 17,8 C 81 % 1011,7 hPa 0,0 l/m 0 min 0 min 103 W/m 0,0 km/h (0 Bft) 97,87 %
04.07.2018 07:36 18,3 C 19,4 C 17,8 C 81 % 1011,7 hPa 0,0 l/m 0 min 0 min 113 W/m 0,0 km/h (0 Bft) 95,65 %
04.07.2018 07:38 18,3 C 19,4 C 17,8 C 81 % 1011,8 hPa 0,0 l/m 0 min 0 min 122 W/m 0,0 km/h (0 Bft) 97,87 %
04.07.2018 07:40 18,3 C 19,4 C 17,8 C 82 % 1011,7 hPa 0,0 l/m 0 min 0 min 127 W/m 0,0 km/h (0 Bft) 97,87 %
04.07.2018 07:42 18,3 C 20,0 C 18,3 C 82 % 1011,7 hPa 0,0 l/m 0 min 0 min 126 W/m 0,0 km/h (0 Bft) 97,87 %
04.07.2018 07:44 18,4 C 20,0 C 18,3 C 82 % 1011,7 hPa 0,0 l/m 0 min 0 min 119 W/m 0,0 km/h (0 Bft) 97,87 %
04.07.2018 07:46 18,4 C 20,0 C 18,3 C 82 % 1011,7 hPa 0,0 l/m 0 min 0 min 111 W/m 0,0 km/h (0 Bft) 97,87 %
04.07.2018 07:48 18,4 C 20,0 C 18,3 C 82 % 1011,6 hPa 0,0 l/m 0 min 0 min 102 W/m 0,0 km/h (0 Bft) 97,83 %
04.07.2018 07:50 18,5 C 20,0 C 18,3 C 82 % 1011,6 hPa 0,0 l/m 0 min 0 min 98 W/m 0,0 km/h (0 Bft) 97,87 %
04.07.2018 07:52 18,6 C 20,0 C 18,3 C 82 % 1011,6 hPa 0,0 l/m 0 min 0 min 98 W/m 0,0 km/h (0 Bft) 95,74 %
04.07.2018 07:54 18,6 C 20,0 C 18,3 C 82 % 1011,5 hPa 0,0 l/m 0 min 0 min 94 W/m 0,0 km/h (0 Bft) 97,87 %
04.07.2018 07:56 18,6 C 20,0 C 18,3 C 82 % 1011,7 hPa 0,0 l/m 0 min 0 min 94 W/m 0,0 km/h (0 Bft) 95,74 %
04.07.2018 07:58 18,7 C 20,0 C 18,3 C 82 % 1011,7 hPa 0,0 l/m 0 min 0 min 98 W/m 0,0 km/h (0 Bft) 97,83 %
04.07.2018 08:00 18,7 C 20,0 C 18,3 C 82 % 1011,7 hPa 0,0 l/m 0 min 0 min 104 W/m 0,0 km/h (0 Bft) 95,74 %
04.07.2018 08:02 18,7 C 20,0 C 18,3 C 82 % 1011,7 hPa 0,0 l/m 0 min 0 min 111 W/m 0,0 km/h (0 Bft) 97,96 %
04.07.2018 08:04 18,8 C 20,6 C 18,3 C 82 % 1011,7 hPa 0,0 l/m 0 min 0 min 118 W/m 0,0 km/h (0 Bft) 97,87 %
04.07.2018 08:08 18,8 C 21,7 C 18,3 C 81 % 1011,7 hPa 0,0 l/m 0 min 0 min 127 W/m 0,0 km/h (0 Bft) 97,87 %
04.07.2018 08:10 18,9 C 21,7 C 18,9 C 81 % 1011,6 hPa 0,0 l/m 0 min 0 min 137 W/m 0,0 km/h (0 Bft) 97,83 %
04.07.2018 08:12 18,9 C 21,7 C 18,9 C 82 % 1011,6 hPa 0,0 l/m 0 min 0 min 159 W/m 0,0 km/h (0 Bft) 100,00 %
04.07.2018 08:14 19,0 C 22,2 C 18,9 C 81 % 1011,6 hPa 0,0 l/m 2 min 0 min 213 W/m 0,0 km/h (0 Bft) 100,00 %
04.07.2018 08:16 19,1 C 22,2 C 18,9 C 81 % 1011,6 hPa 0,0 l/m 2 min 0 min 221 W/m 4,5 km/h (1 Bft) 100,00 %
04.07.2018 08:18 19,1 C 22,2 C 18,9 C 80 % 1011,6 hPa 0,0 l/m 2 min 0 min 233 W/m 2,3 km/h (1 Bft) 100,00 %
04.07.2018 08:20 19,2 C 22,2 C 18,9 C 80 % 1011,6 hPa 0,0 l/m 2 min 0 min 233 W/m 2,3 km/h (1 Bft) 100,00 %
04.07.2018 08:22 19,2 C 21,7 C 18,9 C 80 % 1011,8 hPa 0,0 l/m 2 min 0 min 219 W/m 2,3 km/h (1 Bft) 100,00 %
04.07.2018 08:24 19,3 C 22,2 C 18,9 C 80 % 1011,7 hPa 0,0 l/m 2 min 0 min 250 W/m 2,3 km/h (1 Bft) 100,00 %
04.07.2018 08:26 19,4 C 22,2 C 18,9 C 80 % 1011,6 hPa 0,0 l/m 2 min 0 min 279 W/m 2,3 km/h (1 Bft) 100,00 %
04.07.2018 08:28 19,4 C 22,2 C 19,4 C 80 % 1011,6 hPa 0,0 l/m 2 min 0 min 278 W/m 4,5 km/h (1 Bft) 100,00 %
04.07.2018 08:30 19,6 C 22,2 C 19,4 C 79 % 1011,6 hPa 0,0 l/m 2 min 0 min 260 W/m 2,3 km/h (1 Bft) 100,00 %
04.07.2018 08:32 19,6 C 22,2 C 19,4 C 79 % 1011,6 hPa 0,0 l/m 2 min 0 min 266 W/m 4,5 km/h (1 Bft) 100,00 %
04.07.2018 08:34 19,7 C 22,2 C 19,4 C 77 % 1011,6 hPa 0,0 l/m 2 min 0 min 259 W/m 4,5 km/h (1 Bft) 100,00 %
04.07.2018 08:36 19,8 C 22,2 C 19,4 C 75 % 1011,6 hPa 0,0 l/m 2 min 0 min 301 W/m 4,5 km/h (1 Bft) 100,00 %
04.07.2018 08:38 19,9 C 22,2 C 19,4 C 75 % 1011,7 hPa 0,0 l/m 2 min 0 min 353 W/m 2,3 km/h (1 Bft) 100,00 %
04.07.2018 08:40 19,9 C 22,8 C 19,4 C 74 % 1011,7 hPa 0,0 l/m 2 min 0 min 341 W/m 4,5 km/h (1 Bft) 100,00 %
04.07.2018 08:42 20,1 C 22,8 C 19,4 C 73 % 1011,7 hPa 0,0 l/m 2 min 0 min 297 W/m 2,3 km/h (1 Bft) 100,00 %
04.07.2018 08:44 20,2 C 22,2 C 19,4 C 72 % 1011,8 hPa 0,0 l/m 2 min 0 min 281 W/m 6,8 km/h (2 Bft) 100,00 %
04.07.2018 08:46 20,3 C 22,2 C 20,0 C 70 % 1011,8 hPa 0,0 l/m 2 min 0 min 279 W/m 6,8 km/h (2 Bft) 97,83 %
04.07.2018 08:48 20,4 C 22,2 C 20,0 C 70 % 1011,8 hPa 0,0 l/m 2 min 0 min 284 W/m 6,8 km/h (2 Bft) 97,87 %
04.07.2018 08:50 20,6 C 22,8 C 20,0 C 70 % 1011,7 hPa 0,0 l/m 2 min 0 min 299 W/m 4,5 km/h (1 Bft) 97,87 %
04.07.2018 08:52 20,7 C 22,8 C 20,0 C 69 % 1011,7 hPa 0,0 l/m 2 min 0 min 304 W/m 6,8 km/h (2 Bft) 97,87 %
04.07.2018 08:54 20,8 C 22,8 C 20,0 C 68 % 1011,7 hPa 0,0 l/m 2 min 0 min 318 W/m 4,5 km/h (1 Bft) 94,44 %
04.07.2018 08:56 20,9 C 22,8 C 20,0 C 68 % 1011,5 hPa 0,0 l/m 2 min 0 min 315 W/m 4,5 km/h (1 Bft) 97,83 %
04.07.2018 08:58 21,0 C 23,3 C 20,0 C 68 % 1011,6 hPa 0,0 l/m 2 min 0 min 317 W/m 4,5 km/h (1 Bft) 97,87 %
04.07.2018 09:00 21,1 C 22,8 C 20,6 C 68 % 1011,6 hPa 0,0 l/m 2 min 0 min 318 W/m 6,8 km/h (2 Bft) 97,87 %
04.07.2018 09:02 21,2 C 22,8 C 20,6 C 67 % 1011,5 hPa 0,0 l/m 2 min 0 min 329 W/m 6,8 km/h (2 Bft) 97,87 %
04.07.2018 09:04 21,3 C 22,8 C 20,6 C 67 % 1011,6 hPa 0,0 l/m 2 min 0 min 348 W/m 6,8 km/h (2 Bft) 97,87 %
04.07.2018 09:06 21,4 C 23,3 C 20,6 C 67 % 1011,6 hPa 0,0 l/m 2 min 0 min 361 W/m 6,8 km/h (2 Bft) 97,22 %
04.07.2018 09:08 21,5 C 23,3 C 20,6 C 67 % 1011,6 hPa 0,0 l/m 2 min 0 min 360 W/m 2,3 km/h (1 Bft) 97,87 %
04.07.2018 09:10 21,6 C 23,9 C 20,6 C 67 % 1011,6 hPa 0,0 l/m 2 min 0 min 357 W/m 2,3 km/h (1 Bft) 97,87 %
04.07.2018 09:12 21,7 C 23,9 C 20,6 C 67 % 1011,6 hPa 0,0 l/m 2 min 0 min 387 W/m 2,3 km/h (1 Bft) 97,83 %
04.07.2018 09:14 21,8 C 23,9 C 20,6 C 67 % 1011,6 hPa 0,0 l/m 2 min 0 min 405 W/m 2,3 km/h (1 Bft) 97,87 %
04.07.2018 09:16 21,8 C 23,9 C 20,6 C 67 % 1011,6 hPa 0,0 l/m 2 min 0 min 366 W/m 4,5 km/h (1 Bft) 97,87 %
04.07.2018 09:18 21,9 C 23,9 C 21,1 C 66 % 1011,6 hPa 0,0 l/m 2 min 0 min 386 W/m 4,5 km/h (1 Bft) 93,62 %
04.07.2018 09:20 22,0 C 23,9 C 21,1 C 66 % 1011,6 hPa 0,0 l/m 2 min 0 min 396 W/m 2,3 km/h (1 Bft) 93,62 %
04.07.2018 09:22 22,1 C 23,9 C 21,1 C 65 % 1011,6 hPa 0,0 l/m 2 min 0 min 426 W/m 9,0 km/h (2 Bft) 96,55 %
04.07.2018 09:24 22,2 C 23,9 C 21,1 C 65 % 1011,7 hPa 0,0 l/m 2 min 0 min 424 W/m 6,8 km/h (2 Bft) 94,29 %
04.07.2018 09:26 22,3 C 23,9 C 21,1 C 65 % 1011,6 hPa 0,0 l/m 2 min 0 min 400 W/m 6,8 km/h (2 Bft) 95,74 %
04.07.2018 09:28 22,4 C 23,9 C 21,7 C 64 % 1011,6 hPa 0,0 l/m 2 min 0 min 435 W/m 4,5 km/h (1 Bft) 95,74 %
04.07.2018 09:30 22,5 C 23,9 C 21,1 C 65 % 1011,6 hPa 0,0 l/m 2 min 0 min 422 W/m 2,3 km/h (1 Bft) 97,87 %
04.07.2018 09:32 22,6 C 24,4 C 21,1 C 64 % 1011,6 hPa 0,0 l/m 2 min 0 min 418 W/m 4,5 km/h (1 Bft) 95,74 %
04.07.2018 09:34 22,7 C 24,4 C 21,1 C 65 % 1011,5 hPa 0,0 l/m 2 min 0 min 420 W/m 2,3 km/h (1 Bft) 95,74 %
04.07.2018 09:36 22,7 C 24,4 C 21,1 C 65 % 1011,5 hPa 0,0 l/m 2 min 0 min 406 W/m 4,5 km/h (1 Bft) 93,48 %
04.07.2018 09:38 22,8 C 24,4 C 21,1 C 65 % 1011,5 hPa 0,0 l/m 2 min 0 min 405 W/m 4,5 km/h (1 Bft) 95,74 %
04.07.2018 09:40 22,8 C 25,0 C 21,1 C 65 % 1011,6 hPa 0,0 l/m 2 min 0 min 421 W/m 2,3 km/h (1 Bft) 97,87 %
04.07.2018 09:42 22,9 C 25,0 C 21,1 C 65 % 1011,6 hPa 0,0 l/m 2 min 0 min 463 W/m 4,5 km/h (1 Bft) 97,87 %
04.07.2018 09:44 22,9 C 25,0 C 21,7 C 64 % 1011,6 hPa 0,0 l/m 2 min 0 min 521 W/m 4,5 km/h (1 Bft) 97,87 %
04.07.2018 09:46 23,0 C 25,6 C 21,7 C 65 % 1011,7 hPa 0,0 l/m 2 min 0 min 572 W/m 4,5 km/h (1 Bft) 95,65 %
04.07.2018 09:48 23,1 C 26,1 C 21,7 C 65 % 1011,5 hPa 0,0 l/m 2 min 0 min 603 W/m 2,3 km/h (1 Bft) 97,87 %
04.07.2018 09:50 23,1 C 26,1 C 21,7 C 65 % 1011,4 hPa 0,0 l/m 2 min 0 min 612 W/m 4,5 km/h (1 Bft) 96,61 %
04.07.2018 09:52 23,2 C 26,1 C 21,7 C 62 % 1011,5 hPa 0,0 l/m 2 min 0 min 591 W/m 6,8 km/h (2 Bft) 97,22 %
04.07.2018 09:54 23,3 C 26,7 C 21,7 C 62 % 1011,5 hPa 0,0 l/m 2 min 0 min 549 W/m 2,3 km/h (1 Bft) 97,87 %
04.07.2018 09:56 23,3 C 26,7 C 21,7 C 63 % 1011,5 hPa 0,0 l/m 2 min 0 min 504 W/m 6,8 km/h (2 Bft) 95,74 %
04.07.2018 09:58 23,4 C 27,2 C 21,7 C 63 % 1011,5 hPa 0,0 l/m 2 min 0 min 458 W/m 6,8 km/h (2 Bft) 97,83 %
04.07.2018 10:00 23,5 C 26,7 C 22,2 C 60 % 1011,5 hPa 0,0 l/m 2 min 0 min 379 W/m 4,5 km/h (1 Bft) 97,87 %
04.07.2018 10:02 23,6 C 26,7 C 22,8 C 60 % 1011,5 hPa 0,0 l/m 2 min 0 min 338 W/m 4,5 km/h (1 Bft) 100,00 %
04.07.2018 10:04 23,7 C 26,7 C 22,8 C 60 % 1011,4 hPa 0,0 l/m 2 min 0 min 329 W/m 4,5 km/h (1 Bft) 97,87 %
04.07.2018 10:06 23,8 C 26,1 C 22,8 C 59 % 1011,5 hPa 0,0 l/m 2 min 0 min 340 W/m 4,5 km/h (1 Bft) 97,92 %
04.07.2018 10:08 23,9 C 26,1 C 22,8 C 59 % 1011,5 hPa 0,0 l/m 0 min 0 min 292 W/m 6,8 km/h (2 Bft) 100,00 %
04.07.2018 10:10 24,0 C 26,1 C 22,8 C 60 % 1011,6 hPa 0,0 l/m 0 min 0 min 311 W/m 4,5 km/h (1 Bft) 95,65 %
04.07.2018 10:12 24,1 C 26,7 C 22,2 C 60 % 1011,5 hPa 0,0 l/m 2 min 0 min 323 W/m 2,3 km/h (1 Bft) 100,00 %
04.07.2018 10:14 24,2 C 26,7 C 22,2 C 59 % 1011,5 hPa 0,0 l/m 0 min 0 min 304 W/m 2,3 km/h (1 Bft) 95,74 %
04.07.2018 10:16 24,2 C 26,7 C 22,2 C 60 % 1011,5 hPa 0,0 l/m 2 min 0 min 333 W/m 2,3 km/h (1 Bft) 100,00 %
04.07.2018 10:18 24,3 C 26,1 C 22,8 C 59 % 1011,4 hPa 0,0 l/m 0 min 0 min 312 W/m 2,3 km/h (1 Bft) 100,00 %
04.07.2018 10:20 24,3 C 26,7 C 22,8 C 59 % 1011,4 hPa 0,0 l/m 0 min 0 min 311 W/m 2,3 km/h (1 Bft) 97,87 %
04.07.2018 10:22 24,4 C 26,7 C 22,8 C 59 % 1011,4 hPa 0,0 l/m 0 min 0 min 320 W/m 6,8 km/h (2 Bft) 97,92 %
04.07.2018 10:24 24,5 C 26,7 C 22,8 C 59 % 1011,5 hPa 0,0 l/m 0 min 0 min 325 W/m 2,3 km/h (1 Bft) 97,87 %
04.07.2018 10:26 24,6 C 27,2 C 22,8 C 60 % 1011,6 hPa 0,0 l/m 0 min 0 min 320 W/m 4,5 km/h (1 Bft) 100,00 %
04.07.2018 10:28 24,7 C 26,7 C 23,3 C 58 % 1011,6 hPa 0,0 l/m 2 min 0 min 376 W/m 6,8 km/h (2 Bft) 100,00 %
04.07.2018 10:30 24,7 C 26,7 C 23,3 C 58 % 1011,5 hPa 0,0 l/m 2 min 0 min 497 W/m 11,3 km/h (2 Bft) 100,00 %
04.07.2018 10:32 24,8 C 26,7 C 23,3 C 58 % 1011,5 hPa 0,0 l/m 2 min 0 min 509 W/m 9,0 km/h (2 Bft) 97,87 %
04.07.2018 10:34 24,8 C 26,1 C 23,3 C 58 % 1011,5 hPa 0,0 l/m 2 min 0 min 524 W/m 2,3 km/h (1 Bft) 97,87 %
04.07.2018 10:36 24,9 C 25,6 C 23,3 C 58 % 1011,4 hPa 0,0 l/m 0 min 0 min 192 W/m 2,3 km/h (1 Bft) 97,87 %
04.07.2018 10:38 24,9 C 25,6 C 22,8 C 58 % 1011,4 hPa 0,0 l/m 0 min 0 min 164 W/m 4,5 km/h (1 Bft) 97,87 %
04.07.2018 10:40 25,0 C 25,0 C 22,8 C 58 % 1011,5 hPa 0,0 l/m 0 min 0 min 158 W/m 0,0 km/h (0 Bft) 97,87 %
04.07.2018 10:42 25,0 C 25,0 C 22,8 C 58 % 1011,6 hPa 0,0 l/m 0 min 0 min 159 W/m 2,3 km/h (1 Bft) 97,83 %
04.07.2018 10:44 25,0 C 25,0 C 22,8 C 58 % 1011,7 hPa 0,0 l/m 0 min 0 min 169 W/m 2,3 km/h (1 Bft) 95,74 %
04.07.2018 10:46 25,0 C 25,0 C 22,8 C 57 % 1011,6 hPa 0,0 l/m 0 min 0 min 187 W/m 4,5 km/h (1 Bft) 97,87 %
04.07.2018 10:48 25,0 C 25,0 C 22,8 C 57 % 1011,7 hPa 0,0 l/m 0 min 0 min 213 W/m 2,3 km/h (1 Bft) 95,74 %
04.07.2018 10:50 25,0 C 25,0 C 22,8 C 57 % 1011,7 hPa 0,0 l/m 0 min 0 min 216 W/m 2,3 km/h (1 Bft) 97,87 %
04.07.2018 10:52 25,0 C 25,0 C 22,8 C 58 % 1011,6 hPa 0,0 l/m 0 min 0 min 218 W/m 4,5 km/h (1 Bft) 97,87 %
04.07.2018 10:54 24,9 C 25,0 C 22,8 C 58 % 1011,4 hPa 0,0 l/m 0 min 0 min 181 W/m 2,3 km/h (1 Bft) 97,83 %
04.07.2018 10:56 24,9 C 25,0 C 22,8 C 58 % 1011,5 hPa 0,0 l/m 0 min 0 min 172 W/m 4,5 km/h (1 Bft) 97,87 %
04.07.2018 10:58 24,9 C 25,0 C 22,8 C 58 % 1011,6 hPa 0,0 l/m 0 min 0 min 181 W/m 2,3 km/h (1 Bft) 97,87 %
04.07.2018 11:00 24,9 C 25,6 C 22,8 C 58 % 1011,5 hPa 0,0 l/m 0 min 0 min 212 W/m 2,3 km/h (1 Bft) 97,87 %
04.07.2018 11:02 24,9 C 25,6 C 22,8 C 57 % 1011,6 hPa 0,0 l/m 0 min 0 min 254 W/m 4,5 km/h (1 Bft) 97,87 %
04.07.2018 11:04 24,9 C 26,1 C 22,8 C 57 % 1011,6 hPa 0,0 l/m 0 min 0 min 265 W/m 4,5 km/h (1 Bft) 97,87 %
04.07.2018 11:06 24,9 C 26,1 C 22,8 C 58 % 1011,6 hPa 0,0 l/m 0 min 0 min 268 W/m 2,3 km/h (1 Bft) 97,83 %
04.07.2018 11:08 25,0 C 26,1 C 23,3 C 58 % 1011,7 hPa 0,0 l/m 0 min 0 min 308 W/m 4,5 km/h (1 Bft) 97,87 %
04.07.2018 11:10 25,0 C 26,7 C 23,3 C 59 % 1011,6 hPa 0,0 l/m 0 min 0 min 359 W/m 4,5 km/h (1 Bft) 97,87 %
04.07.2018 11:12 25,1 C 26,7 C 23,3 C 60 % 1011,6 hPa 0,0 l/m 2 min 0 min 373 W/m 6,8 km/h (2 Bft) 97,87 %
04.07.2018 11:14 25,1 C 27,2 C 23,3 C 61 % 1011,6 hPa 0,0 l/m 2 min 0 min 394 W/m 4,5 km/h (1 Bft) 95,74 %
04.07.2018 11:16 25,1 C 27,2 C 23,3 C 61 % 1011,6 hPa 0,0 l/m 2 min 0 min 382 W/m 4,5 km/h (1 Bft) 97,87 %
04.07.2018 11:18 25,1 C 27,2 C 23,9 C 60 % 1011,8 hPa 0,0 l/m 0 min 0 min 369 W/m 4,5 km/h (1 Bft) 97,83 %
04.07.2018 11:20 25,2 C 26,7 C 23,3 C 60 % 1011,8 hPa 0,0 l/m 0 min 0 min 338 W/m 4,5 km/h (1 Bft) 97,87 %
04.07.2018 11:22 25,3 C 27,2 C 23,3 C 61 % 1011,8 hPa 0,0 l/m 0 min 0 min 293 W/m 0,0 km/h (0 Bft) 100,00 %
04.07.2018 11:24 25,3 C 26,7 C 23,3 C 61 % 1011,9 hPa 0,0 l/m 0 min 0 min 277 W/m 4,5 km/h (1 Bft) 97,67 %
04.07.2018 11:26 25,4 C 26,7 C 23,3 C 61 % 1011,8 hPa 0,0 l/m 0 min 0 min 288 W/m 4,5 km/h (1 Bft) 97,87 %
04.07.2018 11:28 25,4 C 27,2 C 23,3 C 60 % 1011,8 hPa 0,0 l/m 0 min 0 min 333 W/m 2,3 km/h (1 Bft) 97,87 %
04.07.2018 11:30 25,4 C 27,2 C 23,3 C 60 % 1011,9 hPa 0,0 l/m 0 min 0 min 344 W/m 2,3 km/h (1 Bft) 100,00 %
04.07.2018 11:32 25,5 C 27,2 C 23,3 C 60 % 1012,0 hPa 0,0 l/m 0 min 0 min 349 W/m 6,8 km/h (2 Bft) 97,83 %
04.07.2018 11:34 25,6 C 27,2 C 23,9 C 59 % 1011,9 hPa 0,0 l/m 0 min 0 min 355 W/m 4,5 km/h (1 Bft) 100,00 %
04.07.2018 11:36 25,6 C 27,2 C 23,9 C 61 % 1012,0 hPa 0,0 l/m 0 min 0 min 341 W/m 4,5 km/h (1 Bft) 100,00 %
04.07.2018 11:38 25,7 C 27,2 C 23,9 C 59 % 1012,0 hPa 0,0 l/m 0 min 0 min 317 W/m 9,0 km/h (2 Bft) 100,00 %
04.07.2018 11:40 25,7 C 27,2 C 23,9 C 59 % 1012,0 hPa 0,0 l/m 0 min 0 min 342 W/m 4,5 km/h (1 Bft) 100,00 %
04.07.2018 11:42 25,8 C 27,2 C 23,9 C 58 % 1012,0 hPa 0,0 l/m 0 min 0 min 338 W/m 6,8 km/h (2 Bft) 100,00 %
04.07.2018 11:44 25,8 C 27,2 C 24,4 C 58 % 1012,0 hPa 0,0 l/m 0 min 0 min 313 W/m 4,5 km/h (1 Bft) 100,00 %
04.07.2018 11:46 25,9 C 27,2 C 24,4 C 59 % 1012,0 hPa 0,0 l/m 0 min 0 min 292 W/m 4,5 km/h (1 Bft) 100,00 %
04.07.2018 11:48 25,9 C 26,7 C 23,9 C 59 % 1012,1 hPa 0,0 l/m 0 min 0 min 253 W/m 4,5 km/h (1 Bft) 97,87 %
04.07.2018 11:50 25,9 C 26,7 C 23,9 C 58 % 1012,1 hPa 0,0 l/m 0 min 0 min 232 W/m 2,3 km/h (1 Bft) 97,87 %
04.07.2018 11:52 26,0 C 27,2 C 23,9 C 58 % 1012,0 hPa 0,0 l/m 0 min 0 min 235 W/m 4,5 km/h (1 Bft) 97,96 %
04.07.2018 11:54 26,1 C 28,9 C 23,9 C 60 % 1012,0 hPa 0,0 l/m 0 min 0 min 241 W/m 2,3 km/h (1 Bft) 91,67 %
04.07.2018 11:56 26,1 C 30,0 C 24,4 C 59 % 1012,0 hPa 0,0 l/m 0 min 0 min 241 W/m 6,8 km/h (2 Bft) 93,62 %
04.07.2018 11:58 26,2 C 30,6 C 24,4 C 58 % 1012,1 hPa 0,0 l/m 2 min 0 min 712 W/m 9,0 km/h (2 Bft) 95,74 %
04.07.2018 12:00 26,3 C 31,7 C 25,0 C 57 % 1012,0 hPa 0,0 l/m 2 min 0 min 635 W/m 4,5 km/h (1 Bft) 95,74 %
04.07.2018 12:02 26,4 C 31,7 C 25,0 C 58 % 1012,0 hPa 0,0 l/m 2 min 0 min 597 W/m 6,8 km/h (2 Bft) 97,87 %
04.07.2018 12:04 26,6 C 31,1 C 25,0 C 57 % 1012,0 hPa 0,0 l/m 2 min 0 min 558 W/m 4,5 km/h (1 Bft) 95,65 %
04.07.2018 12:08 26,7 C 31,1 C 25,0 C 57 % 1011,8 hPa 0,0 l/m 4 min 0 min 449 W/m 6,8 km/h (2 Bft) 95,74 %
04.07.2018 12:10 26,8 C 30,6 C 24,4 C 58 % 1011,8 hPa 0,0 l/m 0 min 0 min 365 W/m 6,8 km/h (2 Bft) 93,62 %
04.07.2018 12:12 26,9 C 30,0 C 24,4 C 56 % 1011,8 hPa 0,0 l/m 0 min 0 min 402 W/m 6,8 km/h (2 Bft) 95,74 %
04.07.2018 12:14 26,9 C 29,4 C 24,4 C 56 % 1011,7 hPa 0,0 l/m 0 min 0 min 369 W/m 4,5 km/h (1 Bft) 95,74 %
04.07.2018 12:16 27,0 C 29,4 C 24,4 C 55 % 1011,7 hPa 0,0 l/m 0 min 0 min 357 W/m 4,5 km/h (1 Bft) 95,65 %
04.07.2018 12:18 27,1 C 31,1 C 24,4 C 55 % 1011,6 hPa 0,0 l/m 2 min 0 min 456 W/m 2,3 km/h (1 Bft) 95,74 %
04.07.2018 12:20 27,1 C 32,8 C 24,4 C 56 % 1011,6 hPa 0,0 l/m 2 min 0 min 637 W/m 6,8 km/h (2 Bft) 95,74 %
04.07.2018 12:22 27,2 C 32,2 C 24,4 C 56 % 1011,7 hPa 0,0 l/m 2 min 0 min 745 W/m 6,8 km/h (2 Bft) 95,74 %
04.07.2018 12:24 27,3 C 33,3 C 25,0 C 56 % 1011,7 hPa 0,0 l/m 2 min 0 min 750 W/m 4,5 km/h (1 Bft) 92,59 %
04.07.2018 12:26 27,3 C 30,6 C 25,0 C 55 % 1011,7 hPa 0,0 l/m 2 min 0 min 597 W/m 9,0 km/h (2 Bft) 95,74 %
04.07.2018 12:28 27,4 C 30,6 C 25,0 C 57 % 1011,6 hPa 0,0 l/m 2 min 0 min 451 W/m 9,0 km/h (2 Bft) 95,65 %
04.07.2018 12:30 27,4 C 30,0 C 25,0 C 56 % 1011,6 hPa 0,0 l/m 2 min 0 min 461 W/m 9,0 km/h (2 Bft) 95,74 %
04.07.2018 12:32 27,5 C 30,0 C 25,0 C 57 % 1011,6 hPa 0,0 l/m 2 min 0 min 455 W/m 4,5 km/h (1 Bft) 93,62 %
04.07.2018 12:34 27,5 C 28,9 C 25,0 C 56 % 1011,8 hPa 0,0 l/m 0 min 0 min 307 W/m 9,0 km/h (2 Bft) 95,74 %
04.07.2018 12:38 27,6 C 27,8 C 24,4 C 59 % 1011,7 hPa 0,0 l/m 0 min 0 min 278 W/m 4,5 km/h (1 Bft) 97,59 %
04.07.2018 12:40 27,6 C 27,2 C 24,4 C 57 % 1011,6 hPa 0,0 l/m 0 min 0 min 260 W/m 6,8 km/h (2 Bft) 97,87 %
04.07.2018 12:42 27,5 C 26,7 C 24,4 C 58 % 1011,7 hPa 0,0 l/m 0 min 0 min 255 W/m 6,8 km/h (2 Bft) 95,65 %
04.07.2018 12:44 27,5 C 26,7 C 24,4 C 60 % 1011,5 hPa 0,0 l/m 0 min 0 min 258 W/m 2,3 km/h (1 Bft) 97,87 %
04.07.2018 12:46 27,4 C 26,7 C 24,4 C 59 % 1011,6 hPa 0,0 l/m 0 min 0 min 264 W/m 4,5 km/h (1 Bft) 97,87 %
04.07.2018 12:48 27,3 C 26,7 C 24,4 C 59 % 1011,6 hPa 0,0 l/m 0 min 0 min 271 W/m 4,5 km/h (1 Bft) 95,74 %
04.07.2018 12:50 27,3 C 26,7 C 24,4 C 59 % 1011,6 hPa 0,0 l/m 0 min 0 min 280 W/m 4,5 km/h (1 Bft) 97,87 %
04.07.2018 12:52 27,3 C 26,7 C 24,4 C 59 % 1011,5 hPa 0,0 l/m 0 min 0 min 292 W/m 2,3 km/h (1 Bft) 100,00 %
04.07.2018 12:54 27,3 C 27,2 C 24,4 C 61 % 1011,6 hPa 0,0 l/m 0 min 2 min 307 W/m 2,3 km/h (1 Bft) 100,00 %
04.07.2018 12:56 27,2 C 27,2 C 24,4 C 62 % 1011,6 hPa 0,0 l/m 0 min 2 min 324 W/m 4,5 km/h (1 Bft) 100,00 %
04.07.2018 12:58 27,2 C 26,7 C 24,4 C 62 % 1011,5 hPa 0,0 l/m 0 min 2 min 342 W/m 6,8 km/h (2 Bft) 100,00 %
04.07.2018 13:00 27,2 C 26,7 C 24,4 C 63 % 1011,5 hPa 0,0 l/m 0 min 2 min 355 W/m 4,5 km/h (1 Bft) 97,87 %
04.07.2018 13:02 27,1 C 26,7 C 24,4 C 63 % 1011,4 hPa 0,0 l/m 0 min 0 min 350 W/m 2,3 km/h (1 Bft) 100,00 %
04.07.2018 13:04 27,1 C 27,2 C 24,4 C 63 % 1011,4 hPa 0,0 l/m 0 min 0 min 338 W/m 6,8 km/h (2 Bft) 100,00 %
04.07.2018 13:06 27,0 C 27,2 C 24,4 C 63 % 1011,4 hPa 0,0 l/m 0 min 0 min 323 W/m 2,3 km/h (1 Bft) 100,00 %
04.07.2018 13:08 26,9 C 27,2 C 24,4 C 62 % 1011,4 hPa 0,0 l/m 0 min 0 min 310 W/m 6,8 km/h (2 Bft) 100,00 %
04.07.2018 13:10 26,9 C 26,7 C 24,4 C 62 % 1011,4 hPa 0,0 l/m 0 min 0 min 306 W/m 4,5 km/h (1 Bft) 95,74 %
04.07.2018 13:12 26,8 C 27,2 C 24,4 C 62 % 1011,4 hPa 0,0 l/m 0 min 0 min 307 W/m 2,3 km/h (1 Bft) 100,00 %
04.07.2018 13:14 26,8 C 26,7 C 24,4 C 62 % 1011,4 hPa 0,0 l/m 0 min 0 min 308 W/m 2,3 km/h (1 Bft) 100,00 %
04.07.2018 13:16 26,8 C 26,7 C 24,4 C 62 % 1011,3 hPa 0,0 l/m 0 min 0 min 312 W/m 4,5 km/h (1 Bft) 100,00 %
04.07.2018 13:18 26,7 C 26,7 C 24,4 C 62 % 1011,2 hPa 0,0 l/m 0 min 0 min 314 W/m 0,0 km/h (0 Bft) 100,00 %
04.07.2018 13:20 26,7 C 27,2 C 24,4 C 63 % 1011,3 hPa 0,0 l/m 0 min 0 min 314 W/m 6,8 km/h (2 Bft) 100,00 %
04.07.2018 13:22 26,7 C 26,7 C 24,4 C 62 % 1011,3 hPa 0,0 l/m 0 min 0 min 315 W/m 6,8 km/h (2 Bft) 100,00 %
04.07.2018 13:24 26,7 C 26,7 C 24,4 C 62 % 1011,3 hPa 0,0 l/m 0 min 0 min 323 W/m 2,3 km/h (1 Bft) 100,00 %
04.07.2018 13:26 26,7 C 27,2 C 24,4 C 63 % 1011,2 hPa 0,0 l/m 0 min 0 min 337 W/m 6,8 km/h (2 Bft) 100,00 %
04.07.2018 13:28 26,7 C 27,2 C 24,4 C 63 % 1011,1 hPa 0,0 l/m 0 min 0 min 344 W/m 4,5 km/h (1 Bft) 97,87 %
04.07.2018 13:30 26,7 C 27,2 C 24,4 C 63 % 1011,2 hPa 0,0 l/m 0 min 0 min 342 W/m 4,5 km/h (1 Bft) 97,83 %
04.07.2018 13:32 26,7 C 27,2 C 24,4 C 63 % 1011,2 hPa 0,0 l/m 0 min 0 min 333 W/m 2,3 km/h (1 Bft) 100,00 %
04.07.2018 13:34 26,6 C 27,2 C 24,4 C 63 % 1011,2 hPa 0,0 l/m 0 min 0 min 339 W/m 6,8 km/h (2 Bft) 97,87 %
04.07.2018 13:36 26,6 C 27,2 C 24,4 C 63 % 1011,2 hPa 0,0 l/m 0 min 0 min 328 W/m 6,8 km/h (2 Bft) 97,87 %
04.07.2018 13:38 26,6 C 27,2 C 24,4 C 63 % 1011,0 hPa 0,0 l/m 0 min 0 min 318 W/m 0,0 km/h (0 Bft) 97,87 %
04.07.2018 13:40 26,6 C 27,2 C 24,4 C 64 % 1011,2 hPa 0,0 l/m 0 min 0 min 341 W/m 0,0 km/h (0 Bft) 97,83 %
04.07.2018 13:42 26,6 C 27,2 C 24,4 C 63 % 1011,1 hPa 0,0 l/m 0 min 0 min 387 W/m 0,0 km/h (0 Bft) 100,00 %
04.07.2018 13:44 26,6 C 27,8 C 25,0 C 63 % 1011,1 hPa 0,0 l/m 2 min 0 min 550 W/m 0,0 km/h (0 Bft) 97,87 %
04.07.2018 13:46 26,6 C 28,3 C 25,0 C 64 % 1011,2 hPa 0,0 l/m 2 min 0 min 761 W/m 0,0 km/h (0 Bft) 97,87 %
04.07.2018 13:48 26,7 C 28,9 C 25,0 C 64 % 1011,2 hPa 0,0 l/m 2 min 0 min 1043 W/m 0,0 km/h (0 Bft) 97,87 %
04.07.2018 13:50 26,7 C 29,4 C 25,6 C 64 % 1011,2 hPa 0,0 l/m 2 min 0 min 1077 W/m 2,3 km/h (1 Bft) 100,00 %
04.07.2018 13:52 26,8 C 29,4 C 26,1 C 64 % 1011,2 hPa 0,0 l/m 2 min 0 min 1036 W/m 4,5 km/h (1 Bft) 97,83 %
04.07.2018 13:54 26,9 C 29,4 C 26,1 C 64 % 1011,2 hPa 0,0 l/m 2 min 0 min 1031 W/m 2,3 km/h (1 Bft) 97,87 %
04.07.2018 13:56 27,0 C 29,4 C 25,6 C 64 % 1011,3 hPa 0,0 l/m 2 min 0 min 928 W/m 4,5 km/h (1 Bft) 97,87 %
04.07.2018 13:58 27,1 C 29,4 C 25,6 C 64 % 1011,3 hPa 0,0 l/m 2 min 0 min 829 W/m 4,5 km/h (1 Bft) 97,87 %
04.07.2018 14:00 27,1 C 28,9 C 25,6 C 63 % 1011,3 hPa 0,0 l/m 2 min 0 min 845 W/m 4,5 km/h (1 Bft) 97,87 %
04.07.2018 14:02 27,2 C 29,4 C 26,1 C 63 % 1011,3 hPa 0,0 l/m 2 min 0 min 927 W/m 4,5 km/h (1 Bft) 95,74 %
04.07.2018 14:04 27,3 C 29,4 C 26,1 C 63 % 1011,2 hPa 0,0 l/m 2 min 0 min 921 W/m 4,5 km/h (1 Bft) 97,83 %
04.07.2018 14:06 27,4 C 29,4 C 26,1 C 62 % 1011,2 hPa 0,0 l/m 2 min 0 min 835 W/m 6,8 km/h (2 Bft) 97,87 %
04.07.2018 14:08 27,6 C 29,4 C 26,1 C 62 % 1011,2 hPa 0,0 l/m 2 min 0 min 739 W/m 4,5 km/h (1 Bft) 97,87 %
04.07.2018 14:10 27,7 C 30,0 C 26,1 C 62 % 1011,3 hPa 0,0 l/m 2 min 0 min 634 W/m 4,5 km/h (1 Bft) 97,87 %
04.07.2018 14:12 27,7 C 29,4 C 26,1 C 62 % 1011,3 hPa 0,0 l/m 2 min 0 min 635 W/m 4,5 km/h (1 Bft) 97,87 %
04.07.2018 14:14 27,8 C 29,4 C 26,1 C 61 % 1011,2 hPa 0,0 l/m 2 min 0 min 661 W/m 4,5 km/h (1 Bft) 97,87 %
04.07.2018 14:16 27,8 C 29,4 C 26,1 C 61 % 1011,2 hPa 0,0 l/m 2 min 0 min 628 W/m 6,8 km/h (2 Bft) 97,83 %
04.07.2018 14:18 27,8 C 28,9 C 26,1 C 60 % 1011,1 hPa 0,0 l/m 2 min 0 min 602 W/m 2,3 km/h (1 Bft) 97,87 %
04.07.2018 14:20 27,9 C 28,9 C 26,1 C 61 % 1011,1 hPa 0,0 l/m 2 min 0 min 578 W/m 4,5 km/h (1 Bft) 95,74 %
04.07.2018 14:22 27,9 C 28,9 C 26,1 C 60 % 1011,1 hPa 0,0 l/m 2 min 0 min 553 W/m 6,8 km/h (2 Bft) 95,83 %
04.07.2018 14:24 28,0 C 28,9 C 26,1 C 61 % 1011,1 hPa 0,0 l/m 2 min 0 min 489 W/m 4,5 km/h (1 Bft) 95,74 %
04.07.2018 14:26 28,0 C 28,3 C 26,1 C 61 % 1011,1 hPa 0,0 l/m 2 min 0 min 456 W/m 4,5 km/h (1 Bft) 97,87 %
04.07.2018 14:28 28,1 C 25,0 C 25,0 C 61 % 1011,1 hPa 0,0 l/m 2 min 0 min 427 W/m 4,5 km/h (1 Bft) 95,65 %
04.07.2018 14:30 28,1 C 23,3 C 22,8 C 62 % 1011,1 hPa 0,0 l/m 0 min 0 min 409 W/m 4,5 km/h (1 Bft) 93,62 %
04.07.2018 14:32 28,0 C 23,3 C 21,7 C 61 % 1011,2 hPa 0,0 l/m 0 min 0 min 398 W/m 6,8 km/h (2 Bft) 93,62 %
04.07.2018 14:34 28,0 C 22,8 C 20,6 C 62 % 1011,1 hPa 0,0 l/m 0 min 0 min 389 W/m 4,5 km/h (1 Bft) 95,74 %
04.07.2018 14:36 28,0 C 23,3 C 20,0 C 62 % 1011,1 hPa 0,0 l/m 0 min 0 min 385 W/m 6,8 km/h (2 Bft) 95,83 %
04.07.2018 14:38 27,9 C 22,2 C 19,4 C 62 % 1011,2 hPa 0,0 l/m 0 min 0 min 379 W/m 11,3 km/h (2 Bft) 95,65 %
04.07.2018 14:40 27,9 C 22,8 C 20,0 C 62 % 1011,2 hPa 0,0 l/m 0 min 0 min 378 W/m 4,5 km/h (1 Bft) 93,62 %
04.07.2018 14:42 27,8 C 22,2 C 19,4 C 62 % 1011,2 hPa 0,0 l/m 0 min 0 min 380 W/m 6,8 km/h (2 Bft) 95,74 %
04.07.2018 14:44 27,7 C 22,2 C 19,4 C 62 % 1011,2 hPa 0,0 l/m 0 min 0 min 381 W/m 4,5 km/h (1 Bft) 95,74 %
04.07.2018 14:46 27,7 C 22,2 C 20,0 C 63 % 1011,2 hPa 0,0 l/m 0 min 0 min 383 W/m 9,0 km/h (2 Bft) 93,62 %
04.07.2018 14:48 27,6 C 22,8 C 19,4 C 63 % 1011,2 hPa 0,0 l/m 0 min 0 min 380 W/m 11,3 km/h (2 Bft) 97,87 %
04.07.2018 14:50 27,6 C 22,8 C 19,4 C 64 % 1011,2 hPa 0,0 l/m 0 min 0 min 381 W/m 4,5 km/h (1 Bft) 97,83 %
04.07.2018 14:52 27,5 C 23,3 C 20,0 C 64 % 1011,3 hPa 0,0 l/m 0 min 0 min 384 W/m 4,5 km/h (1 Bft) 97,87 %
04.07.2018 14:54 27,4 C 23,9 C 20,0 C 64 % 1011,2 hPa 0,0 l/m 0 min 0 min 385 W/m 4,5 km/h (1 Bft) 93,62 %
04.07.2018 14:56 27,4 C 23,9 C 20,0 C 64 % 1011,2 hPa 0,0 l/m 0 min 0 min 384 W/m 6,8 km/h (2 Bft) 97,87 %
04.07.2018 14:58 27,3 C 23,9 C 20,0 C 64 % 1011,2 hPa 0,0 l/m 0 min 0 min 385 W/m 6,8 km/h (2 Bft) 97,87 %
04.07.2018 15:00 27,3 C 23,3 C 19,4 C 65 % 1011,1 hPa 0,0 l/m 0 min 0 min 384 W/m 6,8 km/h (2 Bft) 97,87 %
04.07.2018 15:02 27,2 C 22,2 C 19,4 C 64 % 1011,2 hPa 0,0 l/m 0 min 0 min 379 W/m 4,5 km/h (1 Bft) 97,83 %
04.07.2018 15:04 27,2 C 22,2 C 19,4 C 66 % 1011,1 hPa 0,0 l/m 0 min 0 min 375 W/m 4,5 km/h (1 Bft) 95,74 %
04.07.2018 15:06 27,1 C 22,2 C 19,4 C 65 % 1011,1 hPa 0,0 l/m 0 min 0 min 372 W/m 9,0 km/h (2 Bft) 97,87 %
04.07.2018 15:08 27,1 C 22,2 C 19,4 C 65 % 1011,1 hPa 0,0 l/m 0 min 0 min 368 W/m 11,3 km/h (2 Bft) 100,00 %
04.07.2018 15:10 27,0 C 22,2 C 19,4 C 65 % 1011,1 hPa 0,0 l/m 0 min 0 min 369 W/m 9,0 km/h (2 Bft) 97,87 %
04.07.2018 15:12 26,9 C 22,8 C 20,0 C 65 % 1011,1 hPa 0,0 l/m 0 min 0 min 365 W/m 9,0 km/h (2 Bft) 97,87 %
04.07.2018 15:14 26,9 C 22,8 C 20,0 C 66 % 1011,1 hPa 0,0 l/m 0 min 0 min 361 W/m 6,8 km/h (2 Bft) 95,92 %
04.07.2018 15:16 26,9 C 22,8 C 20,0 C 66 % 1011,1 hPa 0,0 l/m 0 min 0 min 363 W/m 6,8 km/h (2 Bft) 97,87 %
04.07.2018 15:18 26,8 C 22,8 C 19,4 C 67 % 1011,1 hPa 0,0 l/m 0 min 0 min 364 W/m 9,0 km/h (2 Bft) 95,74 %
04.07.2018 15:20 26,8 C 22,8 C 19,4 C 67 % 1011,1 hPa 0,0 l/m 0 min 0 min 363 W/m 9,0 km/h (2 Bft) 95,74 %
04.07.2018 15:22 26,8 C 22,8 C 19,4 C 66 % 1011,1 hPa 0,0 l/m 0 min 0 min 360 W/m 9,0 km/h (2 Bft) 97,87 %
04.07.2018 15:24 26,7 C 22,2 C 19,4 C 67 % 1011,1 hPa 0,0 l/m 0 min 0 min 354 W/m 9,0 km/h (2 Bft) 97,87 %
04.07.2018 15:26 26,7 C 21,7 C 19,4 C 67 % 1011,2 hPa 0,0 l/m 0 min 0 min 352 W/m 11,3 km/h (2 Bft) 97,87 %
04.07.2018 15:28 26,7 C 22,2 C 20,0 C 68 % 1011,1 hPa 0,0 l/m 0 min 0 min 343 W/m 9,0 km/h (2 Bft) 97,87 %
04.07.2018 15:30 26,7 C 22,2 C 20,0 C 68 % 1011,2 hPa 0,0 l/m 0 min 0 min 316 W/m 9,0 km/h (2 Bft) 97,87 %
04.07.2018 15:32 26,6 C 22,8 C 20,0 C 68 % 1011,2 hPa 0,0 l/m 0 min 0 min 344 W/m 4,5 km/h (1 Bft) 97,87 %
04.07.2018 15:34 26,6 C 22,8 C 20,6 C 68 % 1011,1 hPa 0,0 l/m 0 min 0 min 343 W/m 6,8 km/h (2 Bft) 97,87 %
04.07.2018 15:36 26,6 C 23,3 C 20,6 C 68 % 1011,2 hPa 0,0 l/m 0 min 0 min 342 W/m 6,8 km/h (2 Bft) 97,83 %
04.07.2018 15:38 26,6 C 22,8 C 20,6 C 68 % 1011,2 hPa 0,0 l/m 0 min 0 min 341 W/m 9,0 km/h (2 Bft) 97,87 %
04.07.2018 15:40 26,6 C 23,3 C 21,1 C 67 % 1011,3 hPa 0,0 l/m 0 min 0 min 341 W/m 6,8 km/h (2 Bft) 97,87 %
04.07.2018 15:42 26,6 C 23,3 C 21,1 C 68 % 1011,3 hPa 0,0 l/m 0 min 0 min 341 W/m 9,0 km/h (2 Bft) 97,87 %
04.07.2018 15:44 26,6 C 23,9 C 21,1 C 68 % 1011,3 hPa 0,0 l/m 0 min 0 min 339 W/m 4,5 km/h (1 Bft) 97,87 %
04.07.2018 15:46 26,7 C 23,9 C 21,1 C 68 % 1011,2 hPa 0,0 l/m 0 min 0 min 340 W/m 6,8 km/h (2 Bft) 97,87 %
04.07.2018 15:48 26,7 C 23,9 C 21,7 C 68 % 1011,3 hPa 0,0 l/m 0 min 0 min 312 W/m 4,5 km/h (1 Bft) 97,83 %
04.07.2018 15:50 26,7 C 24,4 C 21,7 C 68 % 1011,3 hPa 0,0 l/m 0 min 0 min 354 W/m 9,0 km/h (2 Bft) 97,87 %
04.07.2018 15:52 26,7 C 26,1 C 21,1 C 67 % 1011,3 hPa 0,0 l/m 0 min 0 min 362 W/m 13,5 km/h (3 Bft) 97,87 %
04.07.2018 15:54 26,7 C 26,7 C 21,1 C 67 % 1011,3 hPa 0,0 l/m 0 min 0 min 370 W/m 11,3 km/h (2 Bft) 97,87 %
04.07.2018 15:56 26,8 C 27,2 C 21,7 C 67 % 1011,2 hPa 0,0 l/m 2 min 0 min 378 W/m 18,0 km/h (3 Bft) 97,87 %
04.07.2018 15:58 26,8 C 27,2 C 21,7 C 67 % 1011,2 hPa 0,0 l/m 2 min 0 min 381 W/m 9,0 km/h (2 Bft) 97,87 %
04.07.2018 16:00 26,8 C 27,2 C 21,7 C 67 % 1011,3 hPa 0,0 l/m 2 min 0 min 384 W/m 6,8 km/h (2 Bft) 97,83 %
04.07.2018 16:02 26,9 C 27,2 C 21,7 C 67 % 1011,2 hPa 0,0 l/m 2 min 0 min 395 W/m 6,8 km/h (2 Bft) 97,87 %
04.07.2018 16:04 26,9 C 27,8 C 21,7 C 67 % 1011,2 hPa 0,0 l/m 2 min 0 min 403 W/m 6,8 km/h (2 Bft) 100,00 %
04.07.2018 16:06 27,0 C 27,8 C 21,7 C 67 % 1011,2 hPa 0,0 l/m 2 min 0 min 400 W/m 9,0 km/h (2 Bft) 97,87 %
04.07.2018 16:08 27,0 C 27,8 C 21,7 C 67 % 1011,2 hPa 0,0 l/m 2 min 0 min 404 W/m 9,0 km/h (2 Bft) 100,00 %
04.07.2018 16:10 27,1 C 27,8 C 22,2 C 67 % 1011,3 hPa 0,0 l/m 2 min 0 min 414 W/m 11,3 km/h (2 Bft) 100,00 %
04.07.2018 16:12 27,2 C 27,8 C 22,8 C 67 % 1011,3 hPa 0,0 l/m 2 min 0 min 410 W/m 4,5 km/h (1 Bft) 100,00 %
04.07.2018 16:14 27,2 C 27,8 C 23,3 C 66 % 1011,3 hPa 0,0 l/m 2 min 0 min 411 W/m 4,5 km/h (1 Bft) 97,87 %
04.07.2018 16:16 27,2 C 27,8 C 23,9 C 66 % 1011,2 hPa 0,0 l/m 2 min 0 min 420 W/m 6,8 km/h (2 Bft) 100,00 %
04.07.2018 16:18 27,3 C 28,3 C 24,4 C 67 % 1011,1 hPa 0,0 l/m 2 min 0 min 424 W/m 6,8 km/h (2 Bft) 100,00 %
04.07.2018 16:20 27,3 C 28,3 C 25,0 C 66 % 1011,1 hPa 0,0 l/m 2 min 0 min 449 W/m 4,5 km/h (1 Bft) 100,00 %
04.07.2018 16:22 27,4 C 28,9 C 25,6 C 66 % 1011,1 hPa 0,0 l/m 2 min 0 min 485 W/m 4,5 km/h (1 Bft) 100,00 %
04.07.2018 16:24 27,4 C 29,4 C 25,6 C 67 % 1011,1 hPa 0,0 l/m 2 min 0 min 506 W/m 4,5 km/h (1 Bft) 97,83 %
04.07.2018 16:26 27,5 C 29,4 C 25,6 C 66 % 1011,1 hPa 0,0 l/m 2 min 0 min 481 W/m 9,0 km/h (2 Bft) 100,00 %
04.07.2018 16:28 27,6 C 29,4 C 25,6 C 65 % 1011,0 hPa 0,0 l/m 2 min 0 min 439 W/m 4,5 km/h (1 Bft) 100,00 %
04.07.2018 16:30 27,6 C 28,9 C 25,6 C 65 % 1011,1 hPa 0,0 l/m 2 min 0 min 410 W/m 4,5 km/h (1 Bft) 97,87 %
04.07.2018 16:32 27,7 C 28,9 C 26,1 C 64 % 1011,0 hPa 0,0 l/m 2 min 0 min 402 W/m 11,3 km/h (2 Bft) 100,00 %
04.07.2018 16:34 27,7 C 28,9 C 26,1 C 64 % 1011,0 hPa 0,0 l/m 2 min 0 min 413 W/m 6,8 km/h (2 Bft) 100,00 %
04.07.2018 16:36 27,7 C 28,9 C 26,1 C 64 % 1011,0 hPa 0,0 l/m 2 min 0 min 404 W/m 6,8 km/h (2 Bft) 100,00 %
04.07.2018 16:38 27,8 C 28,9 C 25,6 C 65 % 1011,0 hPa 0,0 l/m 2 min 0 min 396 W/m 4,5 km/h (1 Bft) 100,00 %
04.07.2018 16:40 27,8 C 28,9 C 25,6 C 64 % 1011,0 hPa 0,0 l/m 2 min 0 min 378 W/m 6,8 km/h (2 Bft) 100,00 %
04.07.2018 16:42 27,8 C 28,9 C 25,6 C 63 % 1010,9 hPa 0,0 l/m 2 min 0 min 360 W/m 11,3 km/h (2 Bft) 97,87 %
04.07.2018 16:44 27,9 C 28,9 C 25,6 C 65 % 1010,9 hPa 0,0 l/m 2 min 0 min 349 W/m 4,5 km/h (1 Bft) 100,00 %
04.07.2018 16:46 27,9 C 28,9 C 25,6 C 65 % 1010,9 hPa 0,0 l/m 2 min 0 min 343 W/m 6,8 km/h (2 Bft) 100,00 %
04.07.2018 16:48 27,9 C 28,3 C 25,6 C 63 % 1010,9 hPa 0,0 l/m 2 min 0 min 337 W/m 11,3 km/h (2 Bft) 97,87 %
04.07.2018 16:50 27,9 C 28,3 C 25,6 C 63 % 1010,9 hPa 0,0 l/m 2 min 0 min 338 W/m 9,0 km/h (2 Bft) 97,87 %
04.07.2018 16:52 27,9 C 28,3 C 25,6 C 63 % 1010,9 hPa 0,0 l/m 2 min 0 min 343 W/m 6,8 km/h (2 Bft) 97,87 %
04.07.2018 16:54 28,0 C 28,3 C 26,1 C 63 % 1010,9 hPa 0,0 l/m 2 min 0 min 338 W/m 6,8 km/h (2 Bft) 97,87 %
04.07.2018 16:56 28,0 C 28,3 C 26,1 C 63 % 1010,8 hPa 0,0 l/m 0 min 0 min 323 W/m 9,0 km/h (2 Bft) 95,74 %
04.07.2018 16:58 28,0 C 28,3 C 25,6 C 63 % 1010,7 hPa 0,0 l/m 0 min 0 min 311 W/m 6,8 km/h (2 Bft) 97,83 %
04.07.2018 17:00 28,0 C 28,3 C 25,6 C 63 % 1010,7 hPa 0,0 l/m 0 min 0 min 304 W/m 6,8 km/h (2 Bft) 95,74 %
04.07.2018 17:02 28,1 C 28,3 C 26,1 C 63 % 1010,7 hPa 0,0 l/m 0 min 0 min 298 W/m 9,0 km/h (2 Bft) 95,74 %
04.07.2018 17:04 28,1 C 28,3 C 26,1 C 62 % 1010,7 hPa 0,0 l/m 0 min 0 min 294 W/m 6,8 km/h (2 Bft) 95,74 %
04.07.2018 17:06 28,1 C 28,3 C 26,1 C 62 % 1010,7 hPa 0,0 l/m 0 min 0 min 297 W/m 9,0 km/h (2 Bft) 97,87 %
04.07.2018 17:08 28,1 C 28,3 C 26,1 C 62 % 1010,6 hPa 0,0 l/m 0 min 0 min 299 W/m 6,8 km/h (2 Bft) 97,87 %
04.07.2018 17:10 28,1 C 28,3 C 26,1 C 61 % 1010,5 hPa 0,0 l/m 0 min 0 min 302 W/m 11,3 km/h (2 Bft) 95,65 %
04.07.2018 17:12 28,1 C 28,3 C 26,1 C 61 % 1010,5 hPa 0,0 l/m 0 min 0 min 307 W/m 15,8 km/h (3 Bft) 95,74 %
04.07.2018 17:14 28,1 C 28,3 C 26,1 C 62 % 1010,6 hPa 0,0 l/m 2 min 0 min 314 W/m 6,8 km/h (2 Bft) 95,74 %
04.07.2018 17:16 28,1 C 28,3 C 26,1 C 62 % 1010,6 hPa 0,0 l/m 2 min 0 min 315 W/m 6,8 km/h (2 Bft) 95,74 %
04.07.2018 17:18 28,1 C 28,3 C 26,1 C 61 % 1010,7 hPa 0,0 l/m 2 min 0 min 311 W/m 6,8 km/h (2 Bft) 95,74 %
04.07.2018 17:20 28,1 C 28,3 C 26,1 C 60 % 1010,6 hPa 0,0 l/m 2 min 0 min 308 W/m 6,8 km/h (2 Bft) 93,62 %
04.07.2018 17:22 28,1 C 28,3 C 26,1 C 61 % 1010,6 hPa 0,0 l/m 2 min 0 min 308 W/m 4,5 km/h (1 Bft) 93,48 %
04.07.2018 17:24 28,1 C 28,3 C 26,1 C 61 % 1010,5 hPa 0,0 l/m 2 min 0 min 308 W/m 9,0 km/h (2 Bft) 95,74 %
04.07.2018 17:26 28,1 C 28,3 C 26,1 C 60 % 1010,6 hPa 0,0 l/m 2 min 0 min 309 W/m 6,8 km/h (2 Bft) 95,74 %
04.07.2018 17:28 28,1 C 28,3 C 26,1 C 61 % 1010,5 hPa 0,0 l/m 2 min 0 min 309 W/m 6,8 km/h (2 Bft) 97,87 %
04.07.2018 17:30 28,1 C 28,3 C 26,1 C 60 % 1010,5 hPa 0,0 l/m 2 min 0 min 314 W/m 6,8 km/h (2 Bft) 95,74 %
04.07.2018 17:32 28,1 C 28,3 C 26,1 C 60 % 1010,5 hPa 0,0 l/m 2 min 0 min 314 W/m 6,8 km/h (2 Bft) 95,65 %
04.07.2018 17:34 28,1 C 28,3 C 26,1 C 60 % 1010,5 hPa 0,0 l/m 2 min 0 min 306 W/m 6,8 km/h (2 Bft) 95,74 %
04.07.2018 17:36 28,1 C 28,3 C 26,1 C 61 % 1010,5 hPa 0,0 l/m 2 min 0 min 298 W/m 4,5 km/h (1 Bft) 95,74 %
04.07.2018 17:38 28,1 C 28,3 C 26,1 C 61 % 1010,6 hPa 0,0 l/m 2 min 0 min 296 W/m 11,3 km/h (2 Bft) 95,74 %
04.07.2018 17:40 28,1 C 28,3 C 26,1 C 60 % 1010,5 hPa 0,0 l/m 2 min 0 min 293 W/m 4,5 km/h (1 Bft) 97,87 %
04.07.2018 17:42 28,1 C 27,8 C 26,1 C 60 % 1010,5 hPa 0,0 l/m 2 min 0 min 290 W/m 9,0 km/h (2 Bft) 97,87 %
04.07.2018 17:44 28,1 C 27,8 C 26,1 C 61 % 1010,4 hPa 0,0 l/m 2 min 0 min 287 W/m 9,0 km/h (2 Bft) 97,87 %
04.07.2018 17:46 28,1 C 28,3 C 26,1 C 61 % 1010,4 hPa 0,0 l/m 2 min 0 min 289 W/m 6,8 km/h (2 Bft) 93,48 %
04.07.2018 17:48 28,1 C 28,3 C 26,1 C 61 % 1010,5 hPa 0,0 l/m 2 min 0 min 295 W/m 4,5 km/h (1 Bft) 97,87 %
04.07.2018 17:50 28,1 C 28,3 C 26,1 C 61 % 1010,5 hPa 0,0 l/m 2 min 0 min 303 W/m 0,0 km/h (0 Bft) 97,87 %
04.07.2018 17:52 28,1 C 28,3 C 26,1 C 61 % 1010,5 hPa 0,0 l/m 2 min 0 min 312 W/m 0,0 km/h (0 Bft) 97,87 %
04.07.2018 17:54 28,1 C 28,3 C 26,1 C 61 % 1010,5 hPa 0,0 l/m 2 min 0 min 315 W/m 4,5 km/h (1 Bft) 97,87 %
04.07.2018 17:56 28,1 C 28,3 C 26,1 C 61 % 1010,4 hPa 0,0 l/m 2 min 0 min 318 W/m 4,5 km/h (1 Bft) 97,83 %
04.07.2018 17:58 28,2 C 28,3 C 26,1 C 61 % 1010,4 hPa 0,0 l/m 2 min 0 min 324 W/m 9,0 km/h (2 Bft) 97,87 %
04.07.2018 18:00 28,2 C 28,3 C 26,1 C 61 % 1010,3 hPa 0,0 l/m 2 min 0 min 333 W/m 6,8 km/h (2 Bft) 97,87 %
04.07.2018 18:02 28,2 C 28,3 C 26,1 C 61 % 1010,4 hPa 0,0 l/m 2 min 0 min 369 W/m 6,8 km/h (2 Bft) 97,87 %
04.07.2018 18:04 28,2 C 28,3 C 24,4 C 62 % 1010,4 hPa 0,0 l/m 2 min 0 min 400 W/m 4,5 km/h (1 Bft) 93,62 %
04.07.2018 18:07 28,2 C 26,7 C 22,8 C 62 % 1010,3 hPa 0,0 l/m 3 min 0 min 399 W/m 9,0 km/h (2 Bft) 93,62 %
04.07.2018 18:10 28,2 C 26,1 C 21,7 C 63 % 1010,3 hPa 0,0 l/m 3 min 0 min 394 W/m 9,0 km/h (2 Bft) 98,51 %
04.07.2018 18:12 28,2 C 26,1 C 21,1 C 63 % 1010,3 hPa 0,0 l/m 2 min 0 min 327 W/m 4,5 km/h (1 Bft) 97,87 %
04.07.2018 18:14 28,2 C 25,6 C 21,1 C 64 % 1010,3 hPa 0,0 l/m 2 min 0 min 293 W/m 9,0 km/h (2 Bft) 100,00 %
04.07.2018 18:16 28,2 C 26,1 C 20,6 C 63 % 1010,4 hPa 0,0 l/m 2 min 0 min 261 W/m 9,0 km/h (2 Bft) 100,00 %
04.07.2018 18:18 28,2 C 26,1 C 21,1 C 63 % 1010,4 hPa 0,0 l/m 2 min 0 min 246 W/m 4,5 km/h (1 Bft) 100,00 %
04.07.2018 18:20 28,1 C 24,4 C 20,6 C 63 % 1010,4 hPa 0,0 l/m 2 min 0 min 243 W/m 6,8 km/h (2 Bft) 100,00 %
04.07.2018 18:22 28,1 C 24,4 C 20,6 C 64 % 1010,3 hPa 0,0 l/m 0 min 0 min 235 W/m 9,0 km/h (2 Bft) 100,00 %
04.07.2018 18:24 28,1 C 23,9 C 20,0 C 65 % 1010,3 hPa 0,0 l/m 0 min 0 min 222 W/m 9,0 km/h (2 Bft) 97,87 %
04.07.2018 18:26 28,0 C 24,4 C 20,0 C 64 % 1010,3 hPa 0,0 l/m 0 min 0 min 212 W/m 6,8 km/h (2 Bft) 97,87 %
04.07.2018 18:28 27,9 C 25,0 C 20,0 C 65 % 1010,4 hPa 0,0 l/m 0 min 0 min 216 W/m 4,5 km/h (1 Bft) 97,87 %
04.07.2018 18:30 27,9 C 25,0 C 20,0 C 65 % 1010,4 hPa 0,0 l/m 2 min 0 min 238 W/m 4,5 km/h (1 Bft) 97,87 %
04.07.2018 18:32 27,8 C 23,3 C 20,0 C 65 % 1010,4 hPa 0,0 l/m 2 min 0 min 238 W/m 4,5 km/h (1 Bft) 97,83 %
04.07.2018 18:34 27,8 C 22,8 C 20,0 C 66 % 1010,4 hPa 0,0 l/m 2 min 0 min 233 W/m 9,0 km/h (2 Bft) 97,87 %
04.07.2018 18:36 27,7 C 22,8 C 20,0 C 66 % 1010,4 hPa 0,0 l/m 2 min 0 min 234 W/m 11,3 km/h (2 Bft) 97,87 %
04.07.2018 18:38 27,7 C 22,2 C 20,0 C 66 % 1010,4 hPa 0,0 l/m 2 min 0 min 234 W/m 9,0 km/h (2 Bft) 97,87 %
04.07.2018 18:40 27,6 C 22,2 C 20,0 C 66 % 1010,3 hPa 0,0 l/m 2 min 0 min 230 W/m 9,0 km/h (2 Bft) 97,87 %
04.07.2018 18:42 27,6 C 22,8 C 20,0 C 66 % 1010,4 hPa 0,0 l/m 2 min 0 min 220 W/m 6,8 km/h (2 Bft) 97,87 %
04.07.2018 18:44 27,4 C 22,8 C 20,6 C 66 % 1010,3 hPa 0,0 l/m 2 min 0 min 213 W/m 6,8 km/h (2 Bft) 97,83 %
04.07.2018 18:46 27,4 C 22,8 C 20,6 C 66 % 1010,3 hPa 0,0 l/m 0 min 0 min 206 W/m 9,0 km/h (2 Bft) 97,87 %
04.07.2018 18:48 27,4 C 22,8 C 20,6 C 66 % 1010,3 hPa 0,0 l/m 2 min 0 min 213 W/m 6,8 km/h (2 Bft) 97,87 %
04.07.2018 18:50 27,3 C 22,8 C 20,0 C 66 % 1010,3 hPa 0,0 l/m 2 min 0 min 211 W/m 6,8 km/h (2 Bft) 97,87 %
04.07.2018 18:52 27,3 C 23,9 C 20,0 C 66 % 1010,3 hPa 0,0 l/m 2 min 0 min 206 W/m 6,8 km/h (2 Bft) 97,87 %
04.07.2018 18:54 27,2 C 23,9 C 20,0 C 66 % 1010,3 hPa 0,0 l/m 2 min 0 min 225 W/m 4,5 km/h (1 Bft) 95,74 %
04.07.2018 18:56 27,2 C 23,9 C 20,0 C 66 % 1010,3 hPa 0,0 l/m 2 min 0 min 246 W/m 9,0 km/h (2 Bft) 97,83 %
04.07.2018 18:58 27,2 C 23,9 C 20,0 C 66 % 1010,3 hPa 0,0 l/m 2 min 0 min 250 W/m 11,3 km/h (2 Bft) 97,87 %
04.07.2018 19:00 27,2 C 24,4 C 20,0 C 65 % 1010,3 hPa 0,0 l/m 2 min 0 min 257 W/m 9,0 km/h (2 Bft) 97,87 %
04.07.2018 19:02 27,1 C 25,6 C 19,4 C 64 % 1010,2 hPa 0,0 l/m 2 min 0 min 258 W/m 9,0 km/h (2 Bft) 97,87 %
04.07.2018 19:04 27,1 C 25,0 C 19,4 C 64 % 1010,2 hPa 0,0 l/m 2 min 0 min 255 W/m 9,0 km/h (2 Bft) 97,87 %
04.07.2018 19:06 27,1 C 25,0 C 19,4 C 63 % 1010,2 hPa 0,0 l/m 2 min 0 min 250 W/m 6,8 km/h (2 Bft) 97,87 %
04.07.2018 19:08 27,1 C 24,4 C 19,4 C 62 % 1010,2 hPa 0,0 l/m 2 min 0 min 240 W/m 11,3 km/h (2 Bft) 97,83 %
04.07.2018 19:10 27,0 C 25,0 C 19,4 C 62 % 1010,1 hPa 0,0 l/m 2 min 0 min 237 W/m 6,8 km/h (2 Bft) 95,74 %
04.07.2018 19:12 27,0 C 25,0 C 19,4 C 62 % 1010,1 hPa 0,0 l/m 2 min 0 min 218 W/m 13,5 km/h (3 Bft) 97,87 %
04.07.2018 19:14 27,0 C 25,6 C 19,4 C 62 % 1010,1 hPa 0,0 l/m 2 min 0 min 190 W/m 6,8 km/h (2 Bft) 97,87 %
04.07.2018 19:16 27,0 C 26,1 C 20,0 C 62 % 1010,1 hPa 0,0 l/m 2 min 0 min 177 W/m 11,3 km/h (2 Bft) 97,87 %
04.07.2018 19:18 27,0 C 26,1 C 20,0 C 61 % 1010,1 hPa 0,0 l/m 0 min 0 min 167 W/m 6,8 km/h (2 Bft) 100,00 %
04.07.2018 19:20 27,0 C 26,1 C 20,0 C 61 % 1010,0 hPa 0,0 l/m 0 min 0 min 157 W/m 4,5 km/h (1 Bft) 97,87 %
04.07.2018 19:22 26,9 C 26,1 C 20,0 C 61 % 1010,0 hPa 0,0 l/m 0 min 0 min 150 W/m 6,8 km/h (2 Bft) 100,00 %
04.07.2018 19:24 26,9 C 26,1 C 20,0 C 61 % 1009,9 hPa 0,0 l/m 0 min 0 min 144 W/m 6,8 km/h (2 Bft) 97,87 %
04.07.2018 19:26 26,9 C 26,1 C 20,6 C 61 % 1009,9 hPa 0,0 l/m 0 min 0 min 146 W/m 4,5 km/h (1 Bft) 95,74 %
04.07.2018 19:28 27,0 C 26,1 C 20,6 C 62 % 1010,0 hPa 0,0 l/m 2 min 0 min 164 W/m 4,5 km/h (1 Bft) 95,74 %
04.07.2018 19:30 27,0 C 26,1 C 20,0 C 62 % 1009,9 hPa 0,0 l/m 2 min 0 min 176 W/m 4,5 km/h (1 Bft) 95,65 %
04.07.2018 19:32 26,9 C 25,6 C 20,0 C 62 % 1009,8 hPa 0,0 l/m 2 min 0 min 202 W/m 4,5 km/h (1 Bft) 95,92 %
04.07.2018 19:34 26,9 C 25,6 C 19,4 C 62 % 1009,8 hPa 0,0 l/m 2 min 0 min 208 W/m 4,5 km/h (1 Bft) 97,87 %
04.07.2018 19:36 26,9 C 25,6 C 19,4 C 62 % 1009,8 hPa 0,0 l/m 2 min 0 min 189 W/m 2,3 km/h (1 Bft) 97,87 %
04.07.2018 19:38 26,9 C 25,6 C 18,9 C 62 % 1009,8 hPa 0,0 l/m 2 min 0 min 223 W/m 4,5 km/h (1 Bft) 97,87 %
04.07.2018 19:40 26,9 C 25,0 C 18,9 C 62 % 1009,7 hPa 0,0 l/m 2 min 0 min 268 W/m 6,8 km/h (2 Bft) 95,74 %
04.07.2018 19:42 26,9 C 25,0 C 18,9 C 62 % 1009,7 hPa 0,0 l/m 2 min 0 min 316 W/m 4,5 km/h (1 Bft) 95,65 %
04.07.2018 19:44 26,9 C 22,8 C 18,9 C 62 % 1009,8 hPa 0,0 l/m 2 min 0 min 324 W/m 9,0 km/h (2 Bft) 97,87 %
04.07.2018 19:46 26,9 C 22,2 C 18,9 C 63 % 1009,7 hPa 0,0 l/m 2 min 0 min 326 W/m 2,3 km/h (1 Bft) 97,87 %
04.07.2018 19:48 26,9 C 22,2 C 19,4 C 62 % 1009,7 hPa 0,0 l/m 2 min 0 min 325 W/m 4,5 km/h (1 Bft) 97,87 %
04.07.2018 19:50 26,9 C 22,8 C 19,4 C 62 % 1009,7 hPa 0,0 l/m 2 min 0 min 320 W/m 11,3 km/h (2 Bft) 97,87 %
04.07.2018 19:52 26,8 C 23,3 C 19,4 C 61 % 1009,7 hPa 0,0 l/m 2 min 0 min 307 W/m 9,0 km/h (2 Bft) 97,87 %
04.07.2018 19:54 26,8 C 25,0 C 19,4 C 61 % 1009,7 hPa 0,0 l/m 2 min 0 min 297 W/m 6,8 km/h (2 Bft) 97,83 %
04.07.2018 19:56 26,8 C 25,6 C 19,4 C 61 % 1009,8 hPa 0,0 l/m 2 min 0 min 273 W/m 6,8 km/h (2 Bft) 97,87 %
04.07.2018 19:58 26,8 C 26,1 C 19,4 C 62 % 1009,8 hPa 0,0 l/m 2 min 0 min 203 W/m 4,5 km/h (1 Bft) 95,74 %
04.07.2018 20:00 26,9 C 26,1 C 20,0 C 62 % 1009,9 hPa 0,0 l/m 2 min 0 min 159 W/m 4,5 km/h (1 Bft) 95,74 %
04.07.2018 20:02 26,8 C 26,1 C 20,0 C 61 % 1009,8 hPa 0,0 l/m 2 min 0 min 150 W/m 11,3 km/h (2 Bft) 97,96 %
04.07.2018 20:04 26,9 C 26,1 C 20,6 C 61 % 1009,8 hPa 0,0 l/m 2 min 0 min 139 W/m 9,0 km/h (2 Bft) 97,83 %
04.07.2018 20:06 26,9 C 26,1 C 21,1 C 61 % 1009,8 hPa 0,0 l/m 2 min 0 min 130 W/m 4,5 km/h (1 Bft) 97,87 %
04.07.2018 20:08 26,9 C 26,1 C 21,7 C 61 % 1009,8 hPa 0,0 l/m 2 min 0 min 122 W/m 6,8 km/h (2 Bft) 97,87 %
04.07.2018 20:10 26,9 C 26,1 C 21,1 C 61 % 1009,8 hPa 0,0 l/m 2 min 0 min 114 W/m 9,0 km/h (2 Bft) 97,87 %
04.07.2018 20:12 26,9 C 25,0 C 20,6 C 62 % 1009,8 hPa 0,0 l/m 2 min 0 min 106 W/m 6,8 km/h (2 Bft) 100,00 %
04.07.2018 20:14 26,9 C 24,4 C 20,0 C 61 % 1009,8 hPa 0,0 l/m 0 min 0 min 100 W/m 4,5 km/h (1 Bft) 100,00 %
04.07.2018 20:16 26,9 C 24,4 C 20,0 C 62 % 1009,9 hPa 0,0 l/m 0 min 0 min 97 W/m 2,3 km/h (1 Bft) 100,00 %
04.07.2018 20:18 26,9 C 25,0 C 19,4 C 63 % 1009,8 hPa 0,0 l/m 0 min 0 min 90 W/m 2,3 km/h (1 Bft) 97,87 %
04.07.2018 20:20 26,9 C 25,0 C 19,4 C 63 % 1009,9 hPa 0,0 l/m 0 min 0 min 85 W/m 4,5 km/h (1 Bft) 100,00 %
04.07.2018 20:22 26,9 C 25,0 C 19,4 C 64 % 1009,9 hPa 0,0 l/m 0 min 0 min 81 W/m 2,3 km/h (1 Bft) 100,00 %
04.07.2018 20:24 26,9 C 24,4 C 19,4 C 65 % 1009,9 hPa 0,0 l/m 0 min 0 min 77 W/m 2,3 km/h (1 Bft) 97,87 %
04.07.2018 20:26 26,9 C 24,4 C 19,4 C 64 % 1010,0 hPa 0,0 l/m 0 min 0 min 80 W/m 2,3 km/h (1 Bft) 100,00 %
04.07.2018 20:28 26,8 C 25,0 C 18,9 C 65 % 1009,9 hPa 0,0 l/m 0 min 0 min 85 W/m 2,3 km/h (1 Bft) 100,00 %
04.07.2018 20:30 26,8 C 25,0 C 18,9 C 65 % 1009,9 hPa 0,0 l/m 2 min 0 min 85 W/m 4,5 km/h (1 Bft) 100,00 %
04.07.2018 20:32 26,8 C 25,0 C 18,9 C 65 % 1009,9 hPa 0,0 l/m 2 min 0 min 84 W/m 2,3 km/h (1 Bft) 100,00 %
04.07.2018 20:34 26,8 C 25,0 C 18,9 C 66 % 1010,0 hPa 0,0 l/m 2 min 0 min 83 W/m 0,0 km/h (0 Bft) 97,87 %
04.07.2018 20:36 26,8 C 24,4 C 18,9 C 65 % 1010,0 hPa 0,0 l/m 2 min 0 min 82 W/m 0,0 km/h (0 Bft) 97,87 %
04.07.2018 20:38 26,7 C 24,4 C 18,9 C 65 % 1010,0 hPa 0,0 l/m 2 min 0 min 80 W/m 0,0 km/h (0 Bft) 97,87 %
04.07.2018 20:40 26,7 C 24,4 C 18,9 C 65 % 1010,0 hPa 0,0 l/m 2 min 0 min 78 W/m 0,0 km/h (0 Bft) 100,00 %
04.07.2018 20:42 26,6 C 24,4 C 18,9 C 66 % 1010,0 hPa 0,0 l/m 2 min 0 min 76 W/m 0,0 km/h (0 Bft) 97,87 %
04.07.2018 20:44 26,6 C 23,9 C 18,9 C 65 % 1010,0 hPa 0,0 l/m 2 min 0 min 73 W/m 0,0 km/h (0 Bft) 97,87 %
04.07.2018 20:46 26,6 C 23,9 C 18,9 C 66 % 1010,0 hPa 0,0 l/m 2 min 0 min 69 W/m 0,0 km/h (0 Bft) 97,87 %
04.07.2018 20:48 26,5 C 23,9 C 18,9 C 66 % 1010,1 hPa 0,0 l/m 2 min 0 min 64 W/m 0,0 km/h (0 Bft) 97,87 %
04.07.2018 20:50 26,4 C 23,9 C 18,9 C 65 % 1010,1 hPa 0,0 l/m 0 min 0 min 57 W/m 0,0 km/h (0 Bft) 97,83 %
04.07.2018 20:52 26,4 C 23,9 C 18,9 C 65 % 1010,2 hPa 0,0 l/m 0 min 0 min 51 W/m 0,0 km/h (0 Bft) 97,87 %
04.07.2018 20:54 26,3 C 23,9 C 18,9 C 65 % 1010,1 hPa 0,0 l/m 0 min 0 min 47 W/m 0,0 km/h (0 Bft) 97,87 %
04.07.2018 20:56 26,3 C 23,9 C 18,9 C 66 % 1010,1 hPa 0,0 l/m 0 min 0 min 43 W/m 0,0 km/h (0 Bft) 97,87 %
04.07.2018 20:58 26,3 C 24,4 C 18,9 C 67 % 1010,1 hPa 0,0 l/m 0 min 0 min 42 W/m 0,0 km/h (0 Bft) 97,87 %
04.07.2018 21:00 26,2 C 24,4 C 19,4 C 67 % 1010,1 hPa 0,0 l/m 0 min 0 min 43 W/m 0,0 km/h (0 Bft) 97,87 %
04.07.2018 21:02 26,2 C 24,4 C 19,4 C 67 % 1010,1 hPa 0,0 l/m 0 min 0 min 46 W/m 0,0 km/h (0 Bft) 95,65 %
04.07.2018 21:04 26,1 C 24,4 C 19,4 C 67 % 1010,1 hPa 0,0 l/m 2 min 0 min 45 W/m 0,0 km/h (0 Bft) 95,74 %
04.07.2018 21:06 26,1 C 24,4 C 19,4 C 67 % 1010,1 hPa 0,0 l/m 0 min 0 min 42 W/m 0,0 km/h (0 Bft) 97,87 %
04.07.2018 21:08 26,0 C 24,4 C 19,4 C 68 % 1010,1 hPa 0,0 l/m 2 min 0 min 40 W/m 0,0 km/h (0 Bft) 97,87 %
04.07.2018 21:10 26,0 C 24,4 C 19,4 C 68 % 1010,0 hPa 0,0 l/m 0 min 0 min 37 W/m 0,0 km/h (0 Bft) 95,74 %
04.07.2018 21:12 25,9 C 24,4 C 19,4 C 68 % 1010,1 hPa 0,0 l/m 0 min 0 min 34 W/m 0,0 km/h (0 Bft) 97,87 %
04.07.2018 21:14 25,9 C 25,0 C 19,4 C 69 % 1010,0 hPa 0,0 l/m 0 min 0 min 32 W/m 0,0 km/h (0 Bft) 97,83 %
04.07.2018 21:16 25,9 C 24,4 C 20,0 C 69 % 1010,0 hPa 0,0 l/m 0 min 0 min 30 W/m 0,0 km/h (0 Bft) 97,87 %
04.07.2018 21:18 25,8 C 24,4 C 20,0 C 69 % 1010,1 hPa 0,0 l/m 0 min 0 min 27 W/m 11,3 km/h (2 Bft) 97,87 %
04.07.2018 21:20 25,8 C 24,4 C 20,0 C 70 % 1010,1 hPa 0,0 l/m 0 min 0 min 26 W/m 6,8 km/h (2 Bft) 97,87 %
04.07.2018 21:22 25,8 C 24,4 C 20,0 C 70 % 1010,2 hPa 0,0 l/m 2 min 0 min 25 W/m 11,3 km/h (2 Bft) 97,87 %
04.07.2018 21:24 25,7 C 24,4 C 20,0 C 70 % 1010,2 hPa 0,0 l/m 2 min 0 min 25 W/m 11,3 km/h (2 Bft) 97,87 %
04.07.2018 21:26 25,7 C 24,4 C 20,0 C 70 % 1010,1 hPa 0,0 l/m 2 min 0 min 23 W/m 9,0 km/h (2 Bft) 97,83 %
04.07.2018 21:28 25,7 C 24,4 C 20,0 C 70 % 1010,2 hPa 0,0 l/m 2 min 0 min 22 W/m 11,3 km/h (2 Bft) 97,87 %
04.07.2018 21:30 25,6 C 24,4 C 20,0 C 70 % 1010,2 hPa 0,0 l/m 2 min 0 min 20 W/m 6,8 km/h (2 Bft) 95,74 %
04.07.2018 21:32 25,6 C 24,4 C 20,0 C 70 % 1010,2 hPa 0,0 l/m 0 min 0 min 19 W/m 6,8 km/h (2 Bft) 97,92 %
04.07.2018 21:34 25,6 C 24,4 C 20,0 C 70 % 1010,2 hPa 0,0 l/m 0 min 0 min 18 W/m 9,0 km/h (2 Bft) 93,62 %
04.07.2018 21:36 25,6 C 24,4 C 20,6 C 70 % 1010,2 hPa 0,0 l/m 0 min 0 min 16 W/m 6,8 km/h (2 Bft) 93,75 %
04.07.2018 21:38 25,5 C 24,4 C 20,6 C 70 % 1010,3 hPa 0,0 l/m 0 min 0 min 15 W/m 6,8 km/h (2 Bft) 95,65 %
04.07.2018 21:40 25,5 C 24,4 C 20,6 C 70 % 1010,1 hPa 0,0 l/m 0 min 0 min 13 W/m 4,5 km/h (1 Bft) 97,87 %
04.07.2018 21:42 25,4 C 24,4 C 20,6 C 70 % 1010,1 hPa 0,0 l/m 0 min 0 min 12 W/m 4,5 km/h (1 Bft) 97,14 %
04.07.2018 21:44 25,4 C 24,4 C 20,0 C 70 % 1010,2 hPa 0,0 l/m 0 min 0 min 11 W/m 6,8 km/h (2 Bft) 97,87 %
04.07.2018 21:46 25,4 C 24,4 C 20,0 C 70 % 1010,2 hPa 0,0 l/m 0 min 0 min 11 W/m 2,3 km/h (1 Bft) 97,87 %
04.07.2018 21:48 25,4 C 24,4 C 20,0 C 70 % 1010,2 hPa 0,0 l/m 0 min 0 min 11 W/m 2,3 km/h (1 Bft) 97,87 %
04.07.2018 21:50 25,4 C 23,9 C 20,0 C 70 % 1010,2 hPa 0,0 l/m 0 min 0 min 9 W/m 2,3 km/h (1 Bft) 97,87 %
04.07.2018 21:52 25,4 C 23,9 C 20,0 C 71 % 1010,2 hPa 0,0 l/m 0 min 0 min 9 W/m 0,0 km/h (0 Bft) 96,55 %
04.07.2018 21:54 25,4 C 23,9 C 20,0 C 71 % 1010,1 hPa 0,0 l/m 0 min 0 min 9 W/m 6,8 km/h (2 Bft) 97,14 %
04.07.2018 21:56 25,3 C 23,9 C 20,0 C 71 % 1010,2 hPa 0,0 l/m 0 min 0 min 7 W/m 4,5 km/h (1 Bft) 97,87 %
04.07.2018 21:58 25,3 C 23,9 C 20,0 C 72 % 1010,2 hPa 0,0 l/m 0 min 0 min 7 W/m 6,8 km/h (2 Bft) 97,87 %
04.07.2018 22:00 25,3 C 23,9 C 20,0 C 72 % 1010,3 hPa 0,0 l/m 0 min 0 min 7 W/m 6,8 km/h (2 Bft) 95,74 %
04.07.2018 22:02 25,2 C 23,9 C 20,0 C 72 % 1010,2 hPa 0,0 l/m 0 min 0 min 7 W/m 4,5 km/h (1 Bft) 93,62 %
04.07.2018 22:04 25,2 C 23,9 C 20,0 C 72 % 1010,1 hPa 0,0 l/m 0 min 0 min 7 W/m 6,8 km/h (2 Bft) 95,65 %
04.07.2018 22:06 25,2 C 23,9 C 20,0 C 72 % 1010,1 hPa 0,0 l/m 0 min 0 min 6 W/m 4,5 km/h (1 Bft) 95,74 %
04.07.2018 22:08 25,1 C 23,3 C 20,0 C 72 % 1010,1 hPa 0,0 l/m 0 min 0 min 5 W/m 6,8 km/h (2 Bft) 93,62 %
04.07.2018 22:10 25,1 C 23,3 C 20,0 C 73 % 1010,2 hPa 0,0 l/m 0 min 0 min 5 W/m 4,5 km/h (1 Bft) 95,74 %
04.07.2018 22:12 25,1 C 23,3 C 20,0 C 73 % 1010,2 hPa 0,0 l/m 0 min 0 min 3 W/m 4,5 km/h (1 Bft) 95,74 %
04.07.2018 22:14 25,1 C 23,3 C 20,0 C 73 % 1010,1 hPa 0,0 l/m 0 min 0 min 0 W/m 2,3 km/h (1 Bft) 95,74 %
04.07.2018 22:16 25,1 C 23,3 C 20,0 C 73 % 1010,0 hPa 0,0 l/m 0 min 0 min 0 W/m 4,5 km/h (1 Bft) 97,83 %
04.07.2018 22:18 25,0 C 23,3 C 20,0 C 73 % 1010,0 hPa 0,0 l/m 0 min 0 min 0 W/m 6,8 km/h (2 Bft) 95,74 %
04.07.2018 22:20 24,9 C 23,3 C 20,0 C 73 % 1010,1 hPa 0,0 l/m 0 min 0 min 0 W/m 6,8 km/h (2 Bft) 93,62 %
04.07.2018 22:22 24,9 C 22,8 C 20,0 C 73 % 1010,1 hPa 0,0 l/m 0 min 0 min 0 W/m 6,8 km/h (2 Bft) 93,22 %
04.07.2018 22:24 24,8 C 22,8 C 20,0 C 74 % 1010,0 hPa 0,0 l/m 0 min 0 min 0 W/m 4,5 km/h (1 Bft) 97,14 %
04.07.2018 22:26 24,8 C 22,8 C 20,0 C 74 % 1010,1 hPa 0,0 l/m 0 min 0 min 0 W/m 6,8 km/h (2 Bft) 95,74 %
04.07.2018 22:28 24,8 C 21,7 C 20,0 C 75 % 1010,0 hPa 0,0 l/m 0 min 0 min 0 W/m 6,8 km/h (2 Bft) 95,65 %
04.07.2018 22:30 24,7 C 21,1 C 19,4 C 76 % 1010,1 hPa 0,0 l/m 0 min 0 min 0 W/m 4,5 km/h (1 Bft) 95,74 %
04.07.2018 22:32 24,7 C 21,1 C 19,4 C 76 % 1010,1 hPa 0,0 l/m 0 min 0 min 0 W/m 6,8 km/h (2 Bft) 97,87 %
04.07.2018 22:34 24,6 C 20,6 C 18,9 C 77 % 1010,1 hPa 0,0 l/m 0 min 0 min 0 W/m 4,5 km/h (1 Bft) 95,74 %
04.07.2018 22:36 24,6 C 20,0 C 18,9 C 77 % 1010,1 hPa 0,0 l/m 0 min 0 min 0 W/m 4,5 km/h (1 Bft) 97,87 %
04.07.2018 22:38 24,4 C 20,0 C 18,9 C 77 % 1010,0 hPa 0,0 l/m 0 min 0 min 0 W/m 6,8 km/h (2 Bft) 95,74 %
04.07.2018 22:40 24,4 C 19,4 C 18,9 C 78 % 1010,0 hPa 0,2 l/m 0 min 0 min 0 W/m 6,8 km/h (2 Bft) 97,83 %
04.07.2018 22:42 24,3 C 19,4 C 18,9 C 78 % 1010,0 hPa 0,0 l/m 0 min 0 min 0 W/m 4,5 km/h (1 Bft) 97,87 %
04.07.2018 22:44 24,3 C 19,4 C 18,9 C 78 % 1010,0 hPa 0,0 l/m 0 min 0 min 0 W/m 6,8 km/h (2 Bft) 97,87 %
04.07.2018 22:46 24,2 C 19,4 C 18,9 C 79 % 1010,0 hPa 0,0 l/m 0 min 0 min 0 W/m 4,5 km/h (1 Bft) 100,00 %
04.07.2018 22:48 24,1 C 19,4 C 18,9 C 79 % 1010,0 hPa 0,0 l/m 0 min 0 min 0 W/m 4,5 km/h (1 Bft) 97,87 %
04.07.2018 22:50 24,0 C 19,4 C 18,9 C 79 % 1010,0 hPa 0,0 l/m 0 min 0 min 0 W/m 4,5 km/h (1 Bft) 100,00 %
04.07.2018 22:52 23,9 C 19,4 C 18,9 C 80 % 1010,0 hPa 0,0 l/m 0 min 0 min 0 W/m 2,3 km/h (1 Bft) 97,87 %
04.07.2018 22:54 23,8 C 19,4 C 18,9 C 80 % 1010,0 hPa 0,0 l/m 0 min 0 min 0 W/m 0,0 km/h (0 Bft) 100,00 %
04.07.2018 22:56 23,8 C 19,4 C 18,9 C 80 % 1010,0 hPa 0,0 l/m 0 min 0 min 0 W/m 4,5 km/h (1 Bft) 100,00 %
04.07.2018 22:58 23,7 C 19,4 C 18,9 C 80 % 1010,0 hPa 0,0 l/m 0 min 0 min 0 W/m 2,3 km/h (1 Bft) 97,87 %
04.07.2018 23:00 23,6 C 19,4 C 18,9 C 81 % 1010,0 hPa 0,0 l/m 0 min 0 min 0 W/m 2,3 km/h (1 Bft) 97,87 %
04.07.2018 23:02 23,6 C 19,4 C 18,9 C 81 % 1010,0 hPa 0,0 l/m 0 min 0 min 0 W/m 2,3 km/h (1 Bft) 97,92 %
04.07.2018 23:04 23,5 C 19,4 C 18,9 C 81 % 1010,1 hPa 0,0 l/m 0 min 0 min 0 W/m 2,3 km/h (1 Bft) 100,00 %
04.07.2018 23:06 23,4 C 19,4 C 18,9 C 82 % 1010,1 hPa 0,0 l/m 0 min 0 min 0 W/m 2,3 km/h (1 Bft) 97,87 %
04.07.2018 23:08 23,4 C 19,4 C 18,9 C 82 % 1010,1 hPa 0,0 l/m 0 min 0 min 0 W/m 4,5 km/h (1 Bft) 97,87 %
04.07.2018 23:10 23,3 C 19,4 C 18,9 C 82 % 1010,2 hPa 0,0 l/m 0 min 0 min 0 W/m 2,3 km/h (1 Bft) 100,00 %
04.07.2018 23:12 23,2 C 19,4 C 18,9 C 82 % 1010,2 hPa 0,0 l/m 0 min 0 min 0 W/m 4,5 km/h (1 Bft) 100,00 %
04.07.2018 23:14 23,2 C 19,4 C 18,9 C 82 % 1010,3 hPa 0,0 l/m 0 min 0 min 0 W/m 2,3 km/h (1 Bft) 100,00 %
04.07.2018 23:16 23,1 C 19,4 C 18,9 C 82 % 1010,3 hPa 0,0 l/m 0 min 0 min 0 W/m 4,5 km/h (1 Bft) 100,00 %
04.07.2018 23:18 23,0 C 19,4 C 18,9 C 83 % 1010,3 hPa 0,0 l/m 0 min 0 min 0 W/m 4,5 km/h (1 Bft) 100,00 %
04.07.2018 23:20 22,9 C 19,4 C 18,9 C 83 % 1010,3 hPa 0,0 l/m 0 min 0 min 0 W/m 2,3 km/h (1 Bft) 100,00 %
04.07.2018 23:22 22,9 C 19,4 C 18,9 C 84 % 1010,3 hPa 0,0 l/m 0 min 0 min 0 W/m 0,0 km/h (0 Bft) 95,74 %
04.07.2018 23:24 22,9 C 19,4 C 18,9 C 84 % 1010,4 hPa 0,0 l/m 0 min 0 min 0 W/m 0,0 km/h (0 Bft) 97,87 %
04.07.2018 23:26 22,8 C 19,4 C 18,9 C 84 % 1010,4 hPa 0,2 l/m 0 min 0 min 0 W/m 0,0 km/h (0 Bft) 95,65 %
04.07.2018 23:28 22,8 C 19,4 C 18,9 C 84 % 1010,5 hPa 0,0 l/m 0 min 0 min 0 W/m 0,0 km/h (0 Bft) 97,87 %
04.07.2018 23:30 22,7 C 19,4 C 18,9 C 84 % 1010,5 hPa 0,0 l/m 0 min 0 min 0 W/m 0,0 km/h (0 Bft) 97,87 %
04.07.2018 23:32 22,7 C 19,4 C 18,9 C 85 % 1010,5 hPa 0,0 l/m 0 min 0 min 0 W/m 0,0 km/h (0 Bft) 100,00 %
04.07.2018 23:34 22,7 C 19,4 C 18,9 C 85 % 1010,5 hPa 0,0 l/m 0 min 0 min 0 W/m 0,0 km/h (0 Bft) 100,00 %
04.07.2018 23:36 22,6 C 18,9 C 18,9 C 84 % 1010,5 hPa 0,0 l/m 0 min 0 min 0 W/m 0,0 km/h (0 Bft) 100,00 %
04.07.2018 23:38 22,5 C 18,9 C 18,9 C 85 % 1010,6 hPa 0,0 l/m 0 min 0 min 0 W/m 0,0 km/h (0 Bft) 97,87 %
04.07.2018 23:40 22,5 C 18,9 C 18,3 C 85 % 1010,5 hPa 0,0 l/m 0 min 0 min 0 W/m 0,0 km/h (0 Bft) 97,87 %
04.07.2018 23:42 22,4 C 18,9 C 18,9 C 85 % 1010,6 hPa 0,0 l/m 0 min 0 min 0 W/m 0,0 km/h (0 Bft) 100,00 %
04.07.2018 23:44 22,4 C 18,9 C 18,9 C 85 % 1010,7 hPa 0,0 l/m 0 min 0 min 0 W/m 2,3 km/h (1 Bft) 97,87 %
04.07.2018 23:46 22,3 C 18,9 C 18,9 C 85 % 1010,7 hPa 0,0 l/m 0 min 0 min 0 W/m 2,3 km/h (1 Bft) 97,87 %
04.07.2018 23:48 22,3 C 18,9 C 18,9 C 85 % 1010,7 hPa 0,0 l/m 0 min 0 min 0 W/m 0,0 km/h (0 Bft) 97,87 %
04.07.2018 23:50 22,2 C 18,9 C 18,3 C 85 % 1010,7 hPa 0,0 l/m 0 min 0 min 0 W/m 4,5 km/h (1 Bft) 97,83 %
04.07.2018 23:52 22,2 C 18,9 C 18,3 C 85 % 1010,7 hPa 0,0 l/m 0 min 0 min 0 W/m 6,8 km/h (2 Bft) 97,87 %
04.07.2018 23:54 22,1 C 18,9 C 18,3 C 85 % 1010,7 hPa 0,0 l/m 0 min 0 min 0 W/m 2,3 km/h (1 Bft) 97,87 %
04.07.2018 23:56 22,1 C 18,9 C 18,3 C 85 % 1010,7 hPa 0,0 l/m 0 min 0 min 0 W/m 4,5 km/h (1 Bft) 95,74 %
04.07.2018 23:58 22,0 C 18,9 C 18,3 C 85 % 1010,7 hPa 0,0 l/m 0 min 0 min 0 W/m 2,3 km/h (1 Bft) 97,87 %
_ Min-Zeit 06:30 05:28 00:00 12:16 19:40 - - - - 00:02 01:56
Minimum _ 17,8 C 16,7 C 16,7 C 55 % 1009,7 hPa - - - - 0,0 km/h (0 Bft) 89,36 %
_ Max-Zeit 17:58 12:24 13:52 23:32 00:38 22:40 12:08 12:54 13:50 15:56 00:10
Maximum _ 28,2 C 33,3 C 26,1 C 85 % 1012,8 hPa 0,2 l/m 4 min 2 min 1077 W/m 18,0 km/h
O-SO (3 Bft)
100,00 %
Durchschnitt _ 23,6 C 23,0 C 20,5 C 67 % 1011,3 hPa #0,4 l/m #7:40 h #8 min. 267 W/m 3,8 km/h (1 Bft) 97,61 %
© 2018 W. Hausmann